<?xml version="1.0" encoding="UTF-8" standalone="no" ?>
<gpx xmlns="http://www.topografix.com/GPX/1/1" xmlns:xsi="http://www.w3.org/2001/XMLSchema-instance" xsi:schemaLocation="http://www.topografix.com/GPX/1/1 http://www.topografix.com/GPX/1/1/gpx.xsd" version="1.1" creator="VisuGPX - https://www.visugpx.com">
  <metadata>
    <name>Greo Petite rouge</name>
  </metadata>
  <trk>
    <name><![CDATA[Tracé actuel: 06 FEV 2021 11:46]]></name>
    <trkseg>
      <trkpt lat="43.83135" lon="6.95169">
        <ele>1401.26</ele>
        <time>2021-02-14T10:52:46Z</time>
      </trkpt>
      <trkpt lat="43.83135" lon="6.95168">
        <ele>1402.7</ele>
        <time>2021-02-14T10:53:13Z</time>
      </trkpt>
      <trkpt lat="43.83134" lon="6.95172">
        <ele>1402.22</ele>
        <time>2021-02-14T10:53:54Z</time>
      </trkpt>
      <trkpt lat="43.83135" lon="6.95169">
        <ele>1400.3</ele>
        <time>2021-02-14T10:54:21Z</time>
      </trkpt>
      <trkpt lat="43.83136" lon="6.95169">
        <ele>1402.22</ele>
        <time>2021-02-14T10:54:23Z</time>
      </trkpt>
      <trkpt lat="43.83134" lon="6.95168">
        <ele>1401.74</ele>
        <time>2021-02-14T10:54:48Z</time>
      </trkpt>
      <trkpt lat="43.83134" lon="6.95169">
        <ele>1402.22</ele>
        <time>2021-02-14T10:55:15Z</time>
      </trkpt>
      <trkpt lat="43.83138" lon="6.952">
        <ele>1400.78</ele>
        <time>2021-02-14T10:55:27Z</time>
      </trkpt>
      <trkpt lat="43.83145" lon="6.95251">
        <ele>1400.78</ele>
        <time>2021-02-14T10:55:41Z</time>
      </trkpt>
      <trkpt lat="43.83138" lon="6.95291">
        <ele>1400.78</ele>
        <time>2021-02-14T10:55:52Z</time>
      </trkpt>
      <trkpt lat="43.83119" lon="6.95328">
        <ele>1400.78</ele>
        <time>2021-02-14T10:56:03Z</time>
      </trkpt>
      <trkpt lat="43.83112" lon="6.95335">
        <ele>1400.78</ele>
        <time>2021-02-14T10:56:06Z</time>
      </trkpt>
      <trkpt lat="43.83107" lon="6.95338">
        <ele>1402.22</ele>
        <time>2021-02-14T10:56:08Z</time>
      </trkpt>
      <trkpt lat="43.83099" lon="6.95341">
        <ele>1402.7</ele>
        <time>2021-02-14T10:56:12Z</time>
      </trkpt>
      <trkpt lat="43.83096" lon="6.95342">
        <ele>1402.7</ele>
        <time>2021-02-14T10:56:14Z</time>
      </trkpt>
      <trkpt lat="43.83077" lon="6.95341">
        <ele>1404.62</ele>
        <time>2021-02-14T10:56:25Z</time>
      </trkpt>
      <trkpt lat="43.83075" lon="6.95341">
        <ele>1404.62</ele>
        <time>2021-02-14T10:56:26Z</time>
      </trkpt>
      <trkpt lat="43.83046" lon="6.95327">
        <ele>1405.1</ele>
        <time>2021-02-14T10:56:39Z</time>
      </trkpt>
      <trkpt lat="43.83023" lon="6.95317">
        <ele>1405.1</ele>
        <time>2021-02-14T10:56:48Z</time>
      </trkpt>
      <trkpt lat="43.82987" lon="6.95304">
        <ele>1405.58</ele>
        <time>2021-02-14T10:56:59Z</time>
      </trkpt>
      <trkpt lat="43.82965" lon="6.95295">
        <ele>1405.58</ele>
        <time>2021-02-14T10:57:07Z</time>
      </trkpt>
      <trkpt lat="43.82957" lon="6.95289">
        <ele>1406.07</ele>
        <time>2021-02-14T10:57:11Z</time>
      </trkpt>
      <trkpt lat="43.8294" lon="6.9528">
        <ele>1407.99</ele>
        <time>2021-02-14T10:57:22Z</time>
      </trkpt>
      <trkpt lat="43.82927" lon="6.95273">
        <ele>1408.95</ele>
        <time>2021-02-14T10:57:31Z</time>
      </trkpt>
      <trkpt lat="43.82916" lon="6.95268">
        <ele>1409.43</ele>
        <time>2021-02-14T10:57:38Z</time>
      </trkpt>
      <trkpt lat="43.82896" lon="6.95259">
        <ele>1410.39</ele>
        <time>2021-02-14T10:57:46Z</time>
      </trkpt>
      <trkpt lat="43.82878" lon="6.9525">
        <ele>1411.35</ele>
        <time>2021-02-14T10:57:55Z</time>
      </trkpt>
      <trkpt lat="43.8286" lon="6.95243">
        <ele>1412.31</ele>
        <time>2021-02-14T10:58:05Z</time>
      </trkpt>
      <trkpt lat="43.82846" lon="6.95238">
        <ele>1413.76</ele>
        <time>2021-02-14T10:58:13Z</time>
      </trkpt>
      <trkpt lat="43.82827" lon="6.9523">
        <ele>1413.76</ele>
        <time>2021-02-14T10:58:21Z</time>
      </trkpt>
      <trkpt lat="43.82807" lon="6.95224">
        <ele>1414.24</ele>
        <time>2021-02-14T10:58:30Z</time>
      </trkpt>
      <trkpt lat="43.82789" lon="6.95219">
        <ele>1414.72</ele>
        <time>2021-02-14T10:58:38Z</time>
      </trkpt>
      <trkpt lat="43.82784" lon="6.95217">
        <ele>1415.2</ele>
        <time>2021-02-14T10:58:40Z</time>
      </trkpt>
      <trkpt lat="43.82765" lon="6.95211">
        <ele>1415.68</ele>
        <time>2021-02-14T10:58:49Z</time>
      </trkpt>
      <trkpt lat="43.82751" lon="6.95205">
        <ele>1417.12</ele>
        <time>2021-02-14T10:58:57Z</time>
      </trkpt>
      <trkpt lat="43.82738" lon="6.95201">
        <ele>1417.6</ele>
        <time>2021-02-14T10:59:05Z</time>
      </trkpt>
      <trkpt lat="43.82727" lon="6.95197">
        <ele>1419.04</ele>
        <time>2021-02-14T10:59:12Z</time>
      </trkpt>
      <trkpt lat="43.8271" lon="6.95194">
        <ele>1419.52</ele>
        <time>2021-02-14T10:59:20Z</time>
      </trkpt>
      <trkpt lat="43.82698" lon="6.95194">
        <ele>1420.49</ele>
        <time>2021-02-14T10:59:27Z</time>
      </trkpt>
      <trkpt lat="43.8269" lon="6.95195">
        <ele>1420.97</ele>
        <time>2021-02-14T10:59:31Z</time>
      </trkpt>
      <trkpt lat="43.82668" lon="6.95197">
        <ele>1421.93</ele>
        <time>2021-02-14T10:59:41Z</time>
      </trkpt>
      <trkpt lat="43.82656" lon="6.95199">
        <ele>1421.93</ele>
        <time>2021-02-14T10:59:46Z</time>
      </trkpt>
      <trkpt lat="43.82626" lon="6.95202">
        <ele>1422.41</ele>
        <time>2021-02-14T10:59:58Z</time>
      </trkpt>
      <trkpt lat="43.82616" lon="6.95203">
        <ele>1422.89</ele>
        <time>2021-02-14T11:00:02Z</time>
      </trkpt>
      <trkpt lat="43.82611" lon="6.95202">
        <ele>1421.93</ele>
        <time>2021-02-14T11:00:10Z</time>
      </trkpt>
      <trkpt lat="43.82609" lon="6.95202">
        <ele>1421.93</ele>
        <time>2021-02-14T11:00:16Z</time>
      </trkpt>
      <trkpt lat="43.82591" lon="6.95201">
        <ele>1423.37</ele>
        <time>2021-02-14T11:00:25Z</time>
      </trkpt>
      <trkpt lat="43.82575" lon="6.952">
        <ele>1423.85</ele>
        <time>2021-02-14T11:00:34Z</time>
      </trkpt>
      <trkpt lat="43.82556" lon="6.95194">
        <ele>1425.77</ele>
        <time>2021-02-14T11:00:46Z</time>
      </trkpt>
      <trkpt lat="43.82537" lon="6.95187">
        <ele>1426.73</ele>
        <time>2021-02-14T11:00:58Z</time>
      </trkpt>
      <trkpt lat="43.82525" lon="6.95181">
        <ele>1428.18</ele>
        <time>2021-02-14T11:01:07Z</time>
      </trkpt>
      <trkpt lat="43.82519" lon="6.95178">
        <ele>1428.66</ele>
        <time>2021-02-14T11:01:12Z</time>
      </trkpt>
      <trkpt lat="43.82508" lon="6.95173">
        <ele>1430.1</ele>
        <time>2021-02-14T11:01:21Z</time>
      </trkpt>
      <trkpt lat="43.825" lon="6.95174">
        <ele>1431.54</ele>
        <time>2021-02-14T11:01:28Z</time>
      </trkpt>
      <trkpt lat="43.82492" lon="6.9518">
        <ele>1432.98</ele>
        <time>2021-02-14T11:01:38Z</time>
      </trkpt>
      <trkpt lat="43.82487" lon="6.9519">
        <ele>1434.42</ele>
        <time>2021-02-14T11:01:46Z</time>
      </trkpt>
      <trkpt lat="43.82489" lon="6.9521">
        <ele>1436.35</ele>
        <time>2021-02-14T11:01:57Z</time>
      </trkpt>
      <trkpt lat="43.82494" lon="6.95225">
        <ele>1437.31</ele>
        <time>2021-02-14T11:02:06Z</time>
      </trkpt>
      <trkpt lat="43.82498" lon="6.95235">
        <ele>1438.27</ele>
        <time>2021-02-14T11:02:13Z</time>
      </trkpt>
      <trkpt lat="43.82503" lon="6.95256">
        <ele>1439.71</ele>
        <time>2021-02-14T11:02:25Z</time>
      </trkpt>
      <trkpt lat="43.82505" lon="6.95264">
        <ele>1440.67</ele>
        <time>2021-02-14T11:02:30Z</time>
      </trkpt>
      <trkpt lat="43.82508" lon="6.95278">
        <ele>1442.11</ele>
        <time>2021-02-14T11:02:38Z</time>
      </trkpt>
      <trkpt lat="43.82512" lon="6.95293">
        <ele>1443.56</ele>
        <time>2021-02-14T11:02:47Z</time>
      </trkpt>
      <trkpt lat="43.82518" lon="6.95308">
        <ele>1444.52</ele>
        <time>2021-02-14T11:02:55Z</time>
      </trkpt>
      <trkpt lat="43.8252" lon="6.95312">
        <ele>1444.52</ele>
        <time>2021-02-14T11:02:57Z</time>
      </trkpt>
      <trkpt lat="43.82527" lon="6.95325">
        <ele>1445.48</ele>
        <time>2021-02-14T11:03:06Z</time>
      </trkpt>
      <trkpt lat="43.8253" lon="6.9533">
        <ele>1445.96</ele>
        <time>2021-02-14T11:03:09Z</time>
      </trkpt>
      <trkpt lat="43.82533" lon="6.95337">
        <ele>1445.96</ele>
        <time>2021-02-14T11:03:20Z</time>
      </trkpt>
      <trkpt lat="43.82549" lon="6.95353">
        <ele>1446.92</ele>
        <time>2021-02-14T11:03:31Z</time>
      </trkpt>
      <trkpt lat="43.82591" lon="6.9538">
        <ele>1445.48</ele>
        <time>2021-02-14T11:03:46Z</time>
      </trkpt>
      <trkpt lat="43.8263" lon="6.95368">
        <ele>1445</ele>
        <time>2021-02-14T11:03:57Z</time>
      </trkpt>
      <trkpt lat="43.82662" lon="6.9537">
        <ele>1445</ele>
        <time>2021-02-14T11:04:07Z</time>
      </trkpt>
      <trkpt lat="43.82676" lon="6.95374">
        <ele>1446.44</ele>
        <time>2021-02-14T11:04:12Z</time>
      </trkpt>
      <trkpt lat="43.82704" lon="6.95386">
        <ele>1446.44</ele>
        <time>2021-02-14T11:04:21Z</time>
      </trkpt>
      <trkpt lat="43.82736" lon="6.95401">
        <ele>1446.44</ele>
        <time>2021-02-14T11:04:32Z</time>
      </trkpt>
      <trkpt lat="43.82741" lon="6.95404">
        <ele>1447.4</ele>
        <time>2021-02-14T11:04:34Z</time>
      </trkpt>
      <trkpt lat="43.82754" lon="6.95413">
        <ele>1447.88</ele>
        <time>2021-02-14T11:04:40Z</time>
      </trkpt>
      <trkpt lat="43.82772" lon="6.95429">
        <ele>1446.44</ele>
        <time>2021-02-14T11:04:46Z</time>
      </trkpt>
      <trkpt lat="43.82799" lon="6.95463">
        <ele>1445.48</ele>
        <time>2021-02-14T11:04:56Z</time>
      </trkpt>
      <trkpt lat="43.828" lon="6.95473">
        <ele>1446.44</ele>
        <time>2021-02-14T11:05:00Z</time>
      </trkpt>
      <trkpt lat="43.82792" lon="6.95487">
        <ele>1449.32</ele>
        <time>2021-02-14T11:05:12Z</time>
      </trkpt>
      <trkpt lat="43.82785" lon="6.9549">
        <ele>1450.77</ele>
        <time>2021-02-14T11:05:18Z</time>
      </trkpt>
      <trkpt lat="43.82773" lon="6.95492">
        <ele>1452.21</ele>
        <time>2021-02-14T11:05:27Z</time>
      </trkpt>
      <trkpt lat="43.82762" lon="6.95499">
        <ele>1453.65</ele>
        <time>2021-02-14T11:05:36Z</time>
      </trkpt>
      <trkpt lat="43.82753" lon="6.95505">
        <ele>1454.61</ele>
        <time>2021-02-14T11:05:44Z</time>
      </trkpt>
      <trkpt lat="43.8275" lon="6.95507">
        <ele>1455.09</ele>
        <time>2021-02-14T11:05:47Z</time>
      </trkpt>
      <trkpt lat="43.82743" lon="6.95513">
        <ele>1455.57</ele>
        <time>2021-02-14T11:05:52Z</time>
      </trkpt>
      <trkpt lat="43.82729" lon="6.95534">
        <ele>1456.53</ele>
        <time>2021-02-14T11:06:03Z</time>
      </trkpt>
      <trkpt lat="43.82731" lon="6.95552">
        <ele>1457.5</ele>
        <time>2021-02-14T11:06:10Z</time>
      </trkpt>
      <trkpt lat="43.82743" lon="6.95568">
        <ele>1458.46</ele>
        <time>2021-02-14T11:06:20Z</time>
      </trkpt>
      <trkpt lat="43.82755" lon="6.95588">
        <ele>1459.42</ele>
        <time>2021-02-14T11:06:30Z</time>
      </trkpt>
      <trkpt lat="43.82755" lon="6.95594">
        <ele>1459.42</ele>
        <time>2021-02-14T11:06:32Z</time>
      </trkpt>
      <trkpt lat="43.82735" lon="6.9564">
        <ele>1457.5</ele>
        <time>2021-02-14T11:06:44Z</time>
      </trkpt>
      <trkpt lat="43.82729" lon="6.95643">
        <ele>1458.46</ele>
        <time>2021-02-14T11:06:47Z</time>
      </trkpt>
      <trkpt lat="43.82719" lon="6.95642">
        <ele>1459.42</ele>
        <time>2021-02-14T11:06:53Z</time>
      </trkpt>
      <trkpt lat="43.82696" lon="6.95625">
        <ele>1460.38</ele>
        <time>2021-02-14T11:07:06Z</time>
      </trkpt>
      <trkpt lat="43.82687" lon="6.95619">
        <ele>1461.34</ele>
        <time>2021-02-14T11:07:11Z</time>
      </trkpt>
      <trkpt lat="43.8267" lon="6.9561">
        <ele>1463.26</ele>
        <time>2021-02-14T11:07:21Z</time>
      </trkpt>
      <trkpt lat="43.82652" lon="6.95606">
        <ele>1464.71</ele>
        <time>2021-02-14T11:07:32Z</time>
      </trkpt>
      <trkpt lat="43.8264" lon="6.95605">
        <ele>1465.19</ele>
        <time>2021-02-14T11:07:37Z</time>
      </trkpt>
      <trkpt lat="43.82631" lon="6.95605">
        <ele>1465.19</ele>
        <time>2021-02-14T11:07:41Z</time>
      </trkpt>
      <trkpt lat="43.82615" lon="6.95605">
        <ele>1466.15</ele>
        <time>2021-02-14T11:07:50Z</time>
      </trkpt>
      <trkpt lat="43.82609" lon="6.95605">
        <ele>1466.63</ele>
        <time>2021-02-14T11:07:54Z</time>
      </trkpt>
      <trkpt lat="43.82594" lon="6.95604">
        <ele>1468.07</ele>
        <time>2021-02-14T11:08:03Z</time>
      </trkpt>
      <trkpt lat="43.82582" lon="6.95603">
        <ele>1469.03</ele>
        <time>2021-02-14T11:08:11Z</time>
      </trkpt>
      <trkpt lat="43.8257" lon="6.95603">
        <ele>1470.47</ele>
        <time>2021-02-14T11:08:19Z</time>
      </trkpt>
      <trkpt lat="43.82567" lon="6.95604">
        <ele>1470.95</ele>
        <time>2021-02-14T11:08:21Z</time>
      </trkpt>
      <trkpt lat="43.82554" lon="6.95609">
        <ele>1472.88</ele>
        <time>2021-02-14T11:08:30Z</time>
      </trkpt>
      <trkpt lat="43.82545" lon="6.95617">
        <ele>1473.36</ele>
        <time>2021-02-14T11:08:38Z</time>
      </trkpt>
      <trkpt lat="43.82534" lon="6.95635">
        <ele>1473.84</ele>
        <time>2021-02-14T11:08:48Z</time>
      </trkpt>
      <trkpt lat="43.82522" lon="6.95652">
        <ele>1475.76</ele>
        <time>2021-02-14T11:08:59Z</time>
      </trkpt>
      <trkpt lat="43.82511" lon="6.95658">
        <ele>1477.68</ele>
        <time>2021-02-14T11:09:09Z</time>
      </trkpt>
      <trkpt lat="43.82503" lon="6.95658">
        <ele>1477.68</ele>
        <time>2021-02-14T11:09:15Z</time>
      </trkpt>
      <trkpt lat="43.82494" lon="6.95655">
        <ele>1478.65</ele>
        <time>2021-02-14T11:09:21Z</time>
      </trkpt>
      <trkpt lat="43.82477" lon="6.95655">
        <ele>1479.61</ele>
        <time>2021-02-14T11:09:31Z</time>
      </trkpt>
      <trkpt lat="43.82459" lon="6.95662">
        <ele>1480.09</ele>
        <time>2021-02-14T11:09:40Z</time>
      </trkpt>
      <trkpt lat="43.82447" lon="6.95666">
        <ele>1481.53</ele>
        <time>2021-02-14T11:09:48Z</time>
      </trkpt>
      <trkpt lat="43.82434" lon="6.95667">
        <ele>1482.49</ele>
        <time>2021-02-14T11:09:56Z</time>
      </trkpt>
      <trkpt lat="43.82425" lon="6.95667">
        <ele>1482.97</ele>
        <time>2021-02-14T11:10:01Z</time>
      </trkpt>
      <trkpt lat="43.82402" lon="6.95669">
        <ele>1484.89</ele>
        <time>2021-02-14T11:10:15Z</time>
      </trkpt>
      <trkpt lat="43.82388" lon="6.95668">
        <ele>1486.34</ele>
        <time>2021-02-14T11:10:24Z</time>
      </trkpt>
      <trkpt lat="43.82378" lon="6.95664">
        <ele>1487.78</ele>
        <time>2021-02-14T11:10:32Z</time>
      </trkpt>
      <trkpt lat="43.82375" lon="6.95663">
        <ele>1488.26</ele>
        <time>2021-02-14T11:10:34Z</time>
      </trkpt>
      <trkpt lat="43.82366" lon="6.9566">
        <ele>1489.22</ele>
        <time>2021-02-14T11:10:42Z</time>
      </trkpt>
      <trkpt lat="43.8236" lon="6.95658">
        <ele>1490.18</ele>
        <time>2021-02-14T11:10:46Z</time>
      </trkpt>
      <trkpt lat="43.82338" lon="6.95654">
        <ele>1490.66</ele>
        <time>2021-02-14T11:10:56Z</time>
      </trkpt>
      <trkpt lat="43.82328" lon="6.95654">
        <ele>1490.66</ele>
        <time>2021-02-14T11:11:00Z</time>
      </trkpt>
      <trkpt lat="43.8232" lon="6.95654">
        <ele>1491.62</ele>
        <time>2021-02-14T11:11:05Z</time>
      </trkpt>
      <trkpt lat="43.82315" lon="6.95652">
        <ele>1491.62</ele>
        <time>2021-02-14T11:11:08Z</time>
      </trkpt>
      <trkpt lat="43.82304" lon="6.95646">
        <ele>1493.06</ele>
        <time>2021-02-14T11:11:17Z</time>
      </trkpt>
      <trkpt lat="43.82293" lon="6.95633">
        <ele>1494.99</ele>
        <time>2021-02-14T11:11:28Z</time>
      </trkpt>
      <trkpt lat="43.82287" lon="6.9562">
        <ele>1495.47</ele>
        <time>2021-02-14T11:11:36Z</time>
      </trkpt>
      <trkpt lat="43.82286" lon="6.95617">
        <ele>1495.47</ele>
        <time>2021-02-14T11:11:38Z</time>
      </trkpt>
      <trkpt lat="43.82284" lon="6.95608">
        <ele>1496.91</ele>
        <time>2021-02-14T11:11:43Z</time>
      </trkpt>
      <trkpt lat="43.82284" lon="6.95603">
        <ele>1497.39</ele>
        <time>2021-02-14T11:11:46Z</time>
      </trkpt>
      <trkpt lat="43.82283" lon="6.95596">
        <ele>1498.35</ele>
        <time>2021-02-14T11:11:50Z</time>
      </trkpt>
      <trkpt lat="43.82281" lon="6.95584">
        <ele>1499.31</ele>
        <time>2021-02-14T11:11:58Z</time>
      </trkpt>
      <trkpt lat="43.82281" lon="6.9557">
        <ele>1500.76</ele>
        <time>2021-02-14T11:12:06Z</time>
      </trkpt>
      <trkpt lat="43.8228" lon="6.95564">
        <ele>1501.24</ele>
        <time>2021-02-14T11:12:09Z</time>
      </trkpt>
      <trkpt lat="43.82278" lon="6.9555">
        <ele>1502.68</ele>
        <time>2021-02-14T11:12:17Z</time>
      </trkpt>
      <trkpt lat="43.82275" lon="6.95535">
        <ele>1503.16</ele>
        <time>2021-02-14T11:12:25Z</time>
      </trkpt>
      <trkpt lat="43.8227" lon="6.9552">
        <ele>1503.64</ele>
        <time>2021-02-14T11:12:33Z</time>
      </trkpt>
      <trkpt lat="43.82264" lon="6.95499">
        <ele>1504.12</ele>
        <time>2021-02-14T11:12:44Z</time>
      </trkpt>
      <trkpt lat="43.82248" lon="6.95467">
        <ele>1505.08</ele>
        <time>2021-02-14T11:12:57Z</time>
      </trkpt>
      <trkpt lat="43.82241" lon="6.95456">
        <ele>1505.56</ele>
        <time>2021-02-14T11:13:03Z</time>
      </trkpt>
      <trkpt lat="43.8223" lon="6.95443">
        <ele>1506.52</ele>
        <time>2021-02-14T11:13:12Z</time>
      </trkpt>
      <trkpt lat="43.82224" lon="6.95435">
        <ele>1507.48</ele>
        <time>2021-02-14T11:13:18Z</time>
      </trkpt>
      <trkpt lat="43.82219" lon="6.95425">
        <ele>1508.45</ele>
        <time>2021-02-14T11:13:25Z</time>
      </trkpt>
      <trkpt lat="43.82212" lon="6.95411">
        <ele>1509.89</ele>
        <time>2021-02-14T11:13:34Z</time>
      </trkpt>
      <trkpt lat="43.82206" lon="6.95397">
        <ele>1511.33</ele>
        <time>2021-02-14T11:13:42Z</time>
      </trkpt>
      <trkpt lat="43.82203" lon="6.95392">
        <ele>1512.29</ele>
        <time>2021-02-14T11:13:46Z</time>
      </trkpt>
      <trkpt lat="43.82199" lon="6.95384">
        <ele>1512.77</ele>
        <time>2021-02-14T11:13:51Z</time>
      </trkpt>
      <trkpt lat="43.8219" lon="6.95366">
        <ele>1514.69</ele>
        <time>2021-02-14T11:14:02Z</time>
      </trkpt>
      <trkpt lat="43.82183" lon="6.9535">
        <ele>1515.66</ele>
        <time>2021-02-14T11:14:10Z</time>
      </trkpt>
      <trkpt lat="43.82177" lon="6.95334">
        <ele>1516.62</ele>
        <time>2021-02-14T11:14:18Z</time>
      </trkpt>
      <trkpt lat="43.82176" lon="6.95332">
        <ele>1516.62</ele>
        <time>2021-02-14T11:14:19Z</time>
      </trkpt>
      <trkpt lat="43.82173" lon="6.95292">
        <ele>1517.1</ele>
        <time>2021-02-14T11:14:33Z</time>
      </trkpt>
      <trkpt lat="43.82174" lon="6.95256">
        <ele>1515.18</ele>
        <time>2021-02-14T11:14:45Z</time>
      </trkpt>
      <trkpt lat="43.82188" lon="6.95201">
        <ele>1512.77</ele>
        <time>2021-02-14T11:14:55Z</time>
      </trkpt>
      <trkpt lat="43.82194" lon="6.95174">
        <ele>1510.85</ele>
        <time>2021-02-14T11:14:59Z</time>
      </trkpt>
      <trkpt lat="43.82197" lon="6.9515">
        <ele>1508.93</ele>
        <time>2021-02-14T11:15:02Z</time>
      </trkpt>
      <trkpt lat="43.822" lon="6.95142">
        <ele>1508.93</ele>
        <time>2021-02-14T11:15:03Z</time>
      </trkpt>
      <trkpt lat="43.82212" lon="6.95109">
        <ele>1507.48</ele>
        <time>2021-02-14T11:15:08Z</time>
      </trkpt>
      <trkpt lat="43.82236" lon="6.95042">
        <ele>1505.08</ele>
        <time>2021-02-14T11:15:19Z</time>
      </trkpt>
      <trkpt lat="43.82243" lon="6.95022">
        <ele>1503.64</ele>
        <time>2021-02-14T11:15:22Z</time>
      </trkpt>
      <trkpt lat="43.82246" lon="6.95007">
        <ele>1502.2</ele>
        <time>2021-02-14T11:15:24Z</time>
      </trkpt>
      <trkpt lat="43.82257" lon="6.94951">
        <ele>1500.76</ele>
        <time>2021-02-14T11:15:33Z</time>
      </trkpt>
      <trkpt lat="43.82258" lon="6.94945">
        <ele>1500.76</ele>
        <time>2021-02-14T11:15:34Z</time>
      </trkpt>
      <trkpt lat="43.82257" lon="6.94938">
        <ele>1500.76</ele>
        <time>2021-02-14T11:15:35Z</time>
      </trkpt>
      <trkpt lat="43.82256" lon="6.94932">
        <ele>1500.27</ele>
        <time>2021-02-14T11:15:36Z</time>
      </trkpt>
      <trkpt lat="43.82255" lon="6.94926">
        <ele>1500.27</ele>
        <time>2021-02-14T11:15:37Z</time>
      </trkpt>
      <trkpt lat="43.82254" lon="6.94919">
        <ele>1500.27</ele>
        <time>2021-02-14T11:15:38Z</time>
      </trkpt>
      <trkpt lat="43.82253" lon="6.94892">
        <ele>1498.83</ele>
        <time>2021-02-14T11:15:42Z</time>
      </trkpt>
      <trkpt lat="43.82255" lon="6.94879">
        <ele>1498.35</ele>
        <time>2021-02-14T11:15:44Z</time>
      </trkpt>
      <trkpt lat="43.82256" lon="6.94874">
        <ele>1498.35</ele>
        <time>2021-02-14T11:15:45Z</time>
      </trkpt>
      <trkpt lat="43.82258" lon="6.94869">
        <ele>1498.35</ele>
        <time>2021-02-14T11:15:46Z</time>
      </trkpt>
      <trkpt lat="43.82267" lon="6.94846">
        <ele>1495.95</ele>
        <time>2021-02-14T11:15:50Z</time>
      </trkpt>
      <trkpt lat="43.82272" lon="6.94831">
        <ele>1494.51</ele>
        <time>2021-02-14T11:15:52Z</time>
      </trkpt>
      <trkpt lat="43.82273" lon="6.94822">
        <ele>1494.03</ele>
        <time>2021-02-14T11:15:53Z</time>
      </trkpt>
      <trkpt lat="43.82274" lon="6.94814">
        <ele>1494.03</ele>
        <time>2021-02-14T11:15:54Z</time>
      </trkpt>
      <trkpt lat="43.82274" lon="6.94807">
        <ele>1493.55</ele>
        <time>2021-02-14T11:15:55Z</time>
      </trkpt>
      <trkpt lat="43.82273" lon="6.94798">
        <ele>1493.06</ele>
        <time>2021-02-14T11:15:56Z</time>
      </trkpt>
      <trkpt lat="43.8227" lon="6.9479">
        <ele>1492.1</ele>
        <time>2021-02-14T11:15:57Z</time>
      </trkpt>
      <trkpt lat="43.82266" lon="6.94782">
        <ele>1491.14</ele>
        <time>2021-02-14T11:15:58Z</time>
      </trkpt>
      <trkpt lat="43.82262" lon="6.94774">
        <ele>1490.18</ele>
        <time>2021-02-14T11:15:59Z</time>
      </trkpt>
      <trkpt lat="43.82258" lon="6.94766">
        <ele>1489.22</ele>
        <time>2021-02-14T11:16:00Z</time>
      </trkpt>
      <trkpt lat="43.82253" lon="6.94759">
        <ele>1489.22</ele>
        <time>2021-02-14T11:16:01Z</time>
      </trkpt>
      <trkpt lat="43.82219" lon="6.94702">
        <ele>1489.7</ele>
        <time>2021-02-14T11:16:12Z</time>
      </trkpt>
      <trkpt lat="43.8222" lon="6.94693">
        <ele>1490.18</ele>
        <time>2021-02-14T11:16:14Z</time>
      </trkpt>
      <trkpt lat="43.82253" lon="6.9467">
        <ele>1490.66</ele>
        <time>2021-02-14T11:16:26Z</time>
      </trkpt>
      <trkpt lat="43.82275" lon="6.94654">
        <ele>1489.22</ele>
        <time>2021-02-14T11:16:33Z</time>
      </trkpt>
      <trkpt lat="43.82278" lon="6.9465">
        <ele>1488.74</ele>
        <time>2021-02-14T11:16:34Z</time>
      </trkpt>
      <trkpt lat="43.82281" lon="6.94645">
        <ele>1488.74</ele>
        <time>2021-02-14T11:16:35Z</time>
      </trkpt>
      <trkpt lat="43.82283" lon="6.9464">
        <ele>1488.74</ele>
        <time>2021-02-14T11:16:36Z</time>
      </trkpt>
      <trkpt lat="43.82286" lon="6.94635">
        <ele>1488.26</ele>
        <time>2021-02-14T11:16:37Z</time>
      </trkpt>
      <trkpt lat="43.82288" lon="6.9463">
        <ele>1487.78</ele>
        <time>2021-02-14T11:16:38Z</time>
      </trkpt>
      <trkpt lat="43.82289" lon="6.94624">
        <ele>1486.82</ele>
        <time>2021-02-14T11:16:39Z</time>
      </trkpt>
      <trkpt lat="43.82291" lon="6.94617">
        <ele>1486.82</ele>
        <time>2021-02-14T11:16:40Z</time>
      </trkpt>
      <trkpt lat="43.82292" lon="6.94611">
        <ele>1486.82</ele>
        <time>2021-02-14T11:16:41Z</time>
      </trkpt>
      <trkpt lat="43.82292" lon="6.94605">
        <ele>1486.82</ele>
        <time>2021-02-14T11:16:42Z</time>
      </trkpt>
      <trkpt lat="43.82292" lon="6.94598">
        <ele>1486.82</ele>
        <time>2021-02-14T11:16:43Z</time>
      </trkpt>
      <trkpt lat="43.82292" lon="6.94592">
        <ele>1486.34</ele>
        <time>2021-02-14T11:16:44Z</time>
      </trkpt>
      <trkpt lat="43.82289" lon="6.94554">
        <ele>1484.89</ele>
        <time>2021-02-14T11:16:51Z</time>
      </trkpt>
      <trkpt lat="43.8229" lon="6.9454">
        <ele>1484.41</ele>
        <time>2021-02-14T11:16:53Z</time>
      </trkpt>
      <trkpt lat="43.82291" lon="6.94534">
        <ele>1484.41</ele>
        <time>2021-02-14T11:16:54Z</time>
      </trkpt>
      <trkpt lat="43.82292" lon="6.94528">
        <ele>1484.41</ele>
        <time>2021-02-14T11:16:55Z</time>
      </trkpt>
      <trkpt lat="43.82302" lon="6.94481">
        <ele>1484.41</ele>
        <time>2021-02-14T11:17:05Z</time>
      </trkpt>
      <trkpt lat="43.82306" lon="6.94436">
        <ele>1482.01</ele>
        <time>2021-02-14T11:17:11Z</time>
      </trkpt>
      <trkpt lat="43.82306" lon="6.94428">
        <ele>1481.05</ele>
        <time>2021-02-14T11:17:12Z</time>
      </trkpt>
      <trkpt lat="43.82302" lon="6.94367">
        <ele>1479.13</ele>
        <time>2021-02-14T11:17:20Z</time>
      </trkpt>
      <trkpt lat="43.82302" lon="6.94359">
        <ele>1478.65</ele>
        <time>2021-02-14T11:17:21Z</time>
      </trkpt>
      <trkpt lat="43.82304" lon="6.94351">
        <ele>1478.65</ele>
        <time>2021-02-14T11:17:22Z</time>
      </trkpt>
      <trkpt lat="43.82305" lon="6.94344">
        <ele>1478.65</ele>
        <time>2021-02-14T11:17:23Z</time>
      </trkpt>
      <trkpt lat="43.82307" lon="6.94339">
        <ele>1478.16</ele>
        <time>2021-02-14T11:17:24Z</time>
      </trkpt>
      <trkpt lat="43.8231" lon="6.94322">
        <ele>1479.61</ele>
        <time>2021-02-14T11:17:27Z</time>
      </trkpt>
      <trkpt lat="43.82309" lon="6.94311">
        <ele>1479.61</ele>
        <time>2021-02-14T11:17:29Z</time>
      </trkpt>
      <trkpt lat="43.82308" lon="6.94306">
        <ele>1478.16</ele>
        <time>2021-02-14T11:17:30Z</time>
      </trkpt>
      <trkpt lat="43.82306" lon="6.943">
        <ele>1477.68</ele>
        <time>2021-02-14T11:17:31Z</time>
      </trkpt>
      <trkpt lat="43.82291" lon="6.94248">
        <ele>1473.84</ele>
        <time>2021-02-14T11:17:38Z</time>
      </trkpt>
      <trkpt lat="43.82276" lon="6.94204">
        <ele>1472.4</ele>
        <time>2021-02-14T11:17:44Z</time>
      </trkpt>
      <trkpt lat="43.82273" lon="6.94196">
        <ele>1471.92</ele>
        <time>2021-02-14T11:17:45Z</time>
      </trkpt>
      <trkpt lat="43.82271" lon="6.94188">
        <ele>1471.44</ele>
        <time>2021-02-14T11:17:46Z</time>
      </trkpt>
      <trkpt lat="43.8227" lon="6.9418">
        <ele>1470.95</ele>
        <time>2021-02-14T11:17:47Z</time>
      </trkpt>
      <trkpt lat="43.82269" lon="6.94172">
        <ele>1470.95</ele>
        <time>2021-02-14T11:17:48Z</time>
      </trkpt>
      <trkpt lat="43.82267" lon="6.9414">
        <ele>1469.51</ele>
        <time>2021-02-14T11:17:52Z</time>
      </trkpt>
      <trkpt lat="43.82268" lon="6.94133">
        <ele>1469.51</ele>
        <time>2021-02-14T11:17:53Z</time>
      </trkpt>
      <trkpt lat="43.82271" lon="6.9412">
        <ele>1469.51</ele>
        <time>2021-02-14T11:17:55Z</time>
      </trkpt>
      <trkpt lat="43.82277" lon="6.94091">
        <ele>1468.55</ele>
        <time>2021-02-14T11:18:00Z</time>
      </trkpt>
      <trkpt lat="43.82277" lon="6.94083">
        <ele>1467.59</ele>
        <time>2021-02-14T11:18:01Z</time>
      </trkpt>
      <trkpt lat="43.82276" lon="6.94075">
        <ele>1467.11</ele>
        <time>2021-02-14T11:18:02Z</time>
      </trkpt>
      <trkpt lat="43.82274" lon="6.94067">
        <ele>1466.63</ele>
        <time>2021-02-14T11:18:03Z</time>
      </trkpt>
      <trkpt lat="43.82271" lon="6.94059">
        <ele>1466.15</ele>
        <time>2021-02-14T11:18:04Z</time>
      </trkpt>
      <trkpt lat="43.82261" lon="6.94031">
        <ele>1465.19</ele>
        <time>2021-02-14T11:18:08Z</time>
      </trkpt>
      <trkpt lat="43.8226" lon="6.94023">
        <ele>1465.19</ele>
        <time>2021-02-14T11:18:09Z</time>
      </trkpt>
      <trkpt lat="43.82259" lon="6.94014">
        <ele>1463.74</ele>
        <time>2021-02-14T11:18:10Z</time>
      </trkpt>
      <trkpt lat="43.82259" lon="6.94005">
        <ele>1462.78</ele>
        <time>2021-02-14T11:18:11Z</time>
      </trkpt>
      <trkpt lat="43.82261" lon="6.93996">
        <ele>1462.3</ele>
        <time>2021-02-14T11:18:12Z</time>
      </trkpt>
      <trkpt lat="43.82264" lon="6.93988">
        <ele>1461.34</ele>
        <time>2021-02-14T11:18:13Z</time>
      </trkpt>
      <trkpt lat="43.82267" lon="6.93984">
        <ele>1460.86</ele>
        <time>2021-02-14T11:18:14Z</time>
      </trkpt>
      <trkpt lat="43.82271" lon="6.93984">
        <ele>1460.86</ele>
        <time>2021-02-14T11:18:15Z</time>
      </trkpt>
      <trkpt lat="43.82275" lon="6.93987">
        <ele>1460.86</ele>
        <time>2021-02-14T11:18:16Z</time>
      </trkpt>
      <trkpt lat="43.82277" lon="6.93991">
        <ele>1461.34</ele>
        <time>2021-02-14T11:18:17Z</time>
      </trkpt>
      <trkpt lat="43.8228" lon="6.93995">
        <ele>1461.34</ele>
        <time>2021-02-14T11:18:18Z</time>
      </trkpt>
      <trkpt lat="43.82281" lon="6.94">
        <ele>1461.34</ele>
        <time>2021-02-14T11:18:19Z</time>
      </trkpt>
      <trkpt lat="43.82283" lon="6.94006">
        <ele>1461.34</ele>
        <time>2021-02-14T11:18:20Z</time>
      </trkpt>
      <trkpt lat="43.82285" lon="6.94011">
        <ele>1461.34</ele>
        <time>2021-02-14T11:18:21Z</time>
      </trkpt>
      <trkpt lat="43.82288" lon="6.94017">
        <ele>1460.86</ele>
        <time>2021-02-14T11:18:22Z</time>
      </trkpt>
      <trkpt lat="43.82291" lon="6.94023">
        <ele>1459.9</ele>
        <time>2021-02-14T11:18:23Z</time>
      </trkpt>
      <trkpt lat="43.82294" lon="6.94027">
        <ele>1459.42</ele>
        <time>2021-02-14T11:18:24Z</time>
      </trkpt>
      <trkpt lat="43.82297" lon="6.94032">
        <ele>1459.42</ele>
        <time>2021-02-14T11:18:25Z</time>
      </trkpt>
      <trkpt lat="43.82301" lon="6.94035">
        <ele>1459.42</ele>
        <time>2021-02-14T11:18:26Z</time>
      </trkpt>
      <trkpt lat="43.82305" lon="6.94038">
        <ele>1459.42</ele>
        <time>2021-02-14T11:18:27Z</time>
      </trkpt>
      <trkpt lat="43.82309" lon="6.9404">
        <ele>1459.42</ele>
        <time>2021-02-14T11:18:28Z</time>
      </trkpt>
      <trkpt lat="43.82339" lon="6.94055">
        <ele>1458.46</ele>
        <time>2021-02-14T11:18:35Z</time>
      </trkpt>
      <trkpt lat="43.82342" lon="6.9406">
        <ele>1458.46</ele>
        <time>2021-02-14T11:18:36Z</time>
      </trkpt>
      <trkpt lat="43.82343" lon="6.94065">
        <ele>1458.46</ele>
        <time>2021-02-14T11:18:37Z</time>
      </trkpt>
      <trkpt lat="43.82343" lon="6.94071">
        <ele>1457.98</ele>
        <time>2021-02-14T11:18:38Z</time>
      </trkpt>
      <trkpt lat="43.82342" lon="6.94077">
        <ele>1457.98</ele>
        <time>2021-02-14T11:18:39Z</time>
      </trkpt>
      <trkpt lat="43.8234" lon="6.94082">
        <ele>1457.98</ele>
        <time>2021-02-14T11:18:40Z</time>
      </trkpt>
      <trkpt lat="43.82337" lon="6.94086">
        <ele>1457.02</ele>
        <time>2021-02-14T11:18:41Z</time>
      </trkpt>
      <trkpt lat="43.82333" lon="6.9409">
        <ele>1457.02</ele>
        <time>2021-02-14T11:18:42Z</time>
      </trkpt>
      <trkpt lat="43.8233" lon="6.94094">
        <ele>1456.05</ele>
        <time>2021-02-14T11:18:43Z</time>
      </trkpt>
      <trkpt lat="43.82327" lon="6.94099">
        <ele>1456.05</ele>
        <time>2021-02-14T11:18:44Z</time>
      </trkpt>
      <trkpt lat="43.82326" lon="6.94106">
        <ele>1455.57</ele>
        <time>2021-02-14T11:18:45Z</time>
      </trkpt>
      <trkpt lat="43.82326" lon="6.94112">
        <ele>1455.57</ele>
        <time>2021-02-14T11:18:46Z</time>
      </trkpt>
      <trkpt lat="43.82327" lon="6.94117">
        <ele>1455.57</ele>
        <time>2021-02-14T11:18:47Z</time>
      </trkpt>
      <trkpt lat="43.82328" lon="6.94122">
        <ele>1455.57</ele>
        <time>2021-02-14T11:18:48Z</time>
      </trkpt>
      <trkpt lat="43.8233" lon="6.94127">
        <ele>1455.57</ele>
        <time>2021-02-14T11:18:49Z</time>
      </trkpt>
      <trkpt lat="43.82333" lon="6.94132">
        <ele>1455.57</ele>
        <time>2021-02-14T11:18:50Z</time>
      </trkpt>
      <trkpt lat="43.82359" lon="6.94184">
        <ele>1454.13</ele>
        <time>2021-02-14T11:19:00Z</time>
      </trkpt>
      <trkpt lat="43.82363" lon="6.94187">
        <ele>1454.13</ele>
        <time>2021-02-14T11:19:01Z</time>
      </trkpt>
      <trkpt lat="43.82367" lon="6.94187">
        <ele>1454.13</ele>
        <time>2021-02-14T11:19:02Z</time>
      </trkpt>
      <trkpt lat="43.82371" lon="6.94186">
        <ele>1454.13</ele>
        <time>2021-02-14T11:19:03Z</time>
      </trkpt>
      <trkpt lat="43.82375" lon="6.94185">
        <ele>1453.65</ele>
        <time>2021-02-14T11:19:04Z</time>
      </trkpt>
      <trkpt lat="43.82378" lon="6.94182">
        <ele>1453.65</ele>
        <time>2021-02-14T11:19:05Z</time>
      </trkpt>
      <trkpt lat="43.82391" lon="6.94175">
        <ele>1452.69</ele>
        <time>2021-02-14T11:19:08Z</time>
      </trkpt>
      <trkpt lat="43.82396" lon="6.94175">
        <ele>1451.73</ele>
        <time>2021-02-14T11:19:09Z</time>
      </trkpt>
      <trkpt lat="43.82408" lon="6.94174">
        <ele>1450.29</ele>
        <time>2021-02-14T11:19:11Z</time>
      </trkpt>
      <trkpt lat="43.82414" lon="6.94175">
        <ele>1450.29</ele>
        <time>2021-02-14T11:19:12Z</time>
      </trkpt>
      <trkpt lat="43.82442" lon="6.9418">
        <ele>1446.44</ele>
        <time>2021-02-14T11:19:16Z</time>
      </trkpt>
      <trkpt lat="43.8245" lon="6.94181">
        <ele>1446.92</ele>
        <time>2021-02-14T11:19:17Z</time>
      </trkpt>
      <trkpt lat="43.82472" lon="6.94181">
        <ele>1445</ele>
        <time>2021-02-14T11:19:20Z</time>
      </trkpt>
      <trkpt lat="43.82524" lon="6.94176">
        <ele>1441.63</ele>
        <time>2021-02-14T11:19:28Z</time>
      </trkpt>
      <trkpt lat="43.82554" lon="6.94179">
        <ele>1441.15</ele>
        <time>2021-02-14T11:19:33Z</time>
      </trkpt>
      <trkpt lat="43.82559" lon="6.94177">
        <ele>1441.15</ele>
        <time>2021-02-14T11:19:34Z</time>
      </trkpt>
      <trkpt lat="43.82562" lon="6.94172">
        <ele>1441.15</ele>
        <time>2021-02-14T11:19:35Z</time>
      </trkpt>
      <trkpt lat="43.82561" lon="6.94165">
        <ele>1440.67</ele>
        <time>2021-02-14T11:19:36Z</time>
      </trkpt>
      <trkpt lat="43.82559" lon="6.94161">
        <ele>1440.19</ele>
        <time>2021-02-14T11:19:37Z</time>
      </trkpt>
      <trkpt lat="43.82555" lon="6.94158">
        <ele>1439.71</ele>
        <time>2021-02-14T11:19:38Z</time>
      </trkpt>
      <trkpt lat="43.82551" lon="6.94155">
        <ele>1439.23</ele>
        <time>2021-02-14T11:19:39Z</time>
      </trkpt>
      <trkpt lat="43.82533" lon="6.94139">
        <ele>1435.87</ele>
        <time>2021-02-14T11:19:42Z</time>
      </trkpt>
      <trkpt lat="43.82508" lon="6.94118">
        <ele>1433.94</ele>
        <time>2021-02-14T11:19:46Z</time>
      </trkpt>
      <trkpt lat="43.82503" lon="6.94116">
        <ele>1433.94</ele>
        <time>2021-02-14T11:19:47Z</time>
      </trkpt>
      <trkpt lat="43.82468" lon="6.94104">
        <ele>1435.87</ele>
        <time>2021-02-14T11:19:56Z</time>
      </trkpt>
      <trkpt lat="43.82451" lon="6.94097">
        <ele>1436.83</ele>
        <time>2021-02-14T11:20:04Z</time>
      </trkpt>
      <trkpt lat="43.8245" lon="6.94096">
        <ele>1437.31</ele>
        <time>2021-02-14T11:20:05Z</time>
      </trkpt>
      <trkpt lat="43.82448" lon="6.94095">
        <ele>1437.31</ele>
        <time>2021-02-14T11:20:06Z</time>
      </trkpt>
      <trkpt lat="43.82444" lon="6.94093">
        <ele>1437.79</ele>
        <time>2021-02-14T11:20:08Z</time>
      </trkpt>
      <trkpt lat="43.82442" lon="6.94092">
        <ele>1437.79</ele>
        <time>2021-02-14T11:20:09Z</time>
      </trkpt>
      <trkpt lat="43.82439" lon="6.9409">
        <ele>1437.79</ele>
        <time>2021-02-14T11:20:10Z</time>
      </trkpt>
      <trkpt lat="43.82436" lon="6.94088">
        <ele>1437.79</ele>
        <time>2021-02-14T11:20:11Z</time>
      </trkpt>
      <trkpt lat="43.82433" lon="6.94085">
        <ele>1437.79</ele>
        <time>2021-02-14T11:20:12Z</time>
      </trkpt>
      <trkpt lat="43.82431" lon="6.94083">
        <ele>1437.79</ele>
        <time>2021-02-14T11:20:13Z</time>
      </trkpt>
      <trkpt lat="43.82429" lon="6.94081">
        <ele>1437.79</ele>
        <time>2021-02-14T11:20:14Z</time>
      </trkpt>
      <trkpt lat="43.82427" lon="6.9408">
        <ele>1437.79</ele>
        <time>2021-02-14T11:20:15Z</time>
      </trkpt>
      <trkpt lat="43.82426" lon="6.94079">
        <ele>1437.79</ele>
        <time>2021-02-14T11:20:16Z</time>
      </trkpt>
      <trkpt lat="43.82425" lon="6.94078">
        <ele>1437.79</ele>
        <time>2021-02-14T11:20:17Z</time>
      </trkpt>
      <trkpt lat="43.82422" lon="6.94077">
        <ele>1438.27</ele>
        <time>2021-02-14T11:20:20Z</time>
      </trkpt>
      <trkpt lat="43.82418" lon="6.94074">
        <ele>1439.71</ele>
        <time>2021-02-14T11:20:24Z</time>
      </trkpt>
      <trkpt lat="43.82417" lon="6.94073">
        <ele>1439.71</ele>
        <time>2021-02-14T11:20:25Z</time>
      </trkpt>
      <trkpt lat="43.82414" lon="6.9407">
        <ele>1440.67</ele>
        <time>2021-02-14T11:20:28Z</time>
      </trkpt>
      <trkpt lat="43.82412" lon="6.94069">
        <ele>1441.15</ele>
        <time>2021-02-14T11:20:30Z</time>
      </trkpt>
      <trkpt lat="43.82411" lon="6.94068">
        <ele>1441.15</ele>
        <time>2021-02-14T11:20:31Z</time>
      </trkpt>
      <trkpt lat="43.82404" lon="6.94062">
        <ele>1443.56</ele>
        <time>2021-02-14T11:20:41Z</time>
      </trkpt>
      <trkpt lat="43.82403" lon="6.94061">
        <ele>1443.56</ele>
        <time>2021-02-14T11:20:42Z</time>
      </trkpt>
      <trkpt lat="43.82402" lon="6.9406">
        <ele>1444.04</ele>
        <time>2021-02-14T11:20:43Z</time>
      </trkpt>
      <trkpt lat="43.82398" lon="6.94055">
        <ele>1444.52</ele>
        <time>2021-02-14T11:20:48Z</time>
      </trkpt>
      <trkpt lat="43.82396" lon="6.94054">
        <ele>1445</ele>
        <time>2021-02-14T11:20:49Z</time>
      </trkpt>
      <trkpt lat="43.82396" lon="6.94053">
        <ele>1445</ele>
        <time>2021-02-14T11:20:50Z</time>
      </trkpt>
      <trkpt lat="43.82395" lon="6.94052">
        <ele>1445</ele>
        <time>2021-02-14T11:20:51Z</time>
      </trkpt>
      <trkpt lat="43.82394" lon="6.9405">
        <ele>1445</ele>
        <time>2021-02-14T11:20:52Z</time>
      </trkpt>
      <trkpt lat="43.82393" lon="6.94049">
        <ele>1445.48</ele>
        <time>2021-02-14T11:20:53Z</time>
      </trkpt>
      <trkpt lat="43.82391" lon="6.94046">
        <ele>1445.48</ele>
        <time>2021-02-14T11:20:56Z</time>
      </trkpt>
      <trkpt lat="43.8239" lon="6.94045">
        <ele>1445.96</ele>
        <time>2021-02-14T11:20:57Z</time>
      </trkpt>
      <trkpt lat="43.82385" lon="6.94036">
        <ele>1447.88</ele>
        <time>2021-02-14T11:21:05Z</time>
      </trkpt>
      <trkpt lat="43.82382" lon="6.94032">
        <ele>1448.84</ele>
        <time>2021-02-14T11:21:10Z</time>
      </trkpt>
      <trkpt lat="43.82377" lon="6.94023">
        <ele>1450.77</ele>
        <time>2021-02-14T11:21:20Z</time>
      </trkpt>
      <trkpt lat="43.82374" lon="6.94018">
        <ele>1451.73</ele>
        <time>2021-02-14T11:21:25Z</time>
      </trkpt>
      <trkpt lat="43.82373" lon="6.94016">
        <ele>1451.73</ele>
        <time>2021-02-14T11:21:26Z</time>
      </trkpt>
      <trkpt lat="43.82372" lon="6.94015">
        <ele>1451.73</ele>
        <time>2021-02-14T11:21:27Z</time>
      </trkpt>
      <trkpt lat="43.82371" lon="6.94014">
        <ele>1452.21</ele>
        <time>2021-02-14T11:21:28Z</time>
      </trkpt>
      <trkpt lat="43.8237" lon="6.94012">
        <ele>1452.21</ele>
        <time>2021-02-14T11:21:29Z</time>
      </trkpt>
      <trkpt lat="43.82362" lon="6.93997">
        <ele>1450.77</ele>
        <time>2021-02-14T11:21:34Z</time>
      </trkpt>
      <trkpt lat="43.82335" lon="6.93944">
        <ele>1448.84</ele>
        <time>2021-02-14T11:21:48Z</time>
      </trkpt>
      <trkpt lat="43.8232" lon="6.93923">
        <ele>1447.88</ele>
        <time>2021-02-14T11:21:55Z</time>
      </trkpt>
      <trkpt lat="43.82318" lon="6.93917">
        <ele>1447.4</ele>
        <time>2021-02-14T11:21:56Z</time>
      </trkpt>
      <trkpt lat="43.82317" lon="6.9391">
        <ele>1446.92</ele>
        <time>2021-02-14T11:21:57Z</time>
      </trkpt>
      <trkpt lat="43.82315" lon="6.93903">
        <ele>1445.96</ele>
        <time>2021-02-14T11:21:58Z</time>
      </trkpt>
      <trkpt lat="43.82314" lon="6.93897">
        <ele>1445.48</ele>
        <time>2021-02-14T11:21:59Z</time>
      </trkpt>
      <trkpt lat="43.82311" lon="6.93853">
        <ele>1442.11</ele>
        <time>2021-02-14T11:22:04Z</time>
      </trkpt>
      <trkpt lat="43.82306" lon="6.93814">
        <ele>1438.75</ele>
        <time>2021-02-14T11:22:08Z</time>
      </trkpt>
      <trkpt lat="43.82304" lon="6.93795">
        <ele>1438.27</ele>
        <time>2021-02-14T11:22:10Z</time>
      </trkpt>
      <trkpt lat="43.82298" lon="6.93752">
        <ele>1437.31</ele>
        <time>2021-02-14T11:22:16Z</time>
      </trkpt>
      <trkpt lat="43.82298" lon="6.93746">
        <ele>1437.31</ele>
        <time>2021-02-14T11:22:17Z</time>
      </trkpt>
      <trkpt lat="43.82296" lon="6.93739">
        <ele>1437.31</ele>
        <time>2021-02-14T11:22:18Z</time>
      </trkpt>
      <trkpt lat="43.82295" lon="6.93734">
        <ele>1437.31</ele>
        <time>2021-02-14T11:22:19Z</time>
      </trkpt>
      <trkpt lat="43.82292" lon="6.93729">
        <ele>1436.35</ele>
        <time>2021-02-14T11:22:20Z</time>
      </trkpt>
      <trkpt lat="43.8229" lon="6.93724">
        <ele>1436.35</ele>
        <time>2021-02-14T11:22:21Z</time>
      </trkpt>
      <trkpt lat="43.82287" lon="6.9372">
        <ele>1436.83</ele>
        <time>2021-02-14T11:22:22Z</time>
      </trkpt>
      <trkpt lat="43.82283" lon="6.93716">
        <ele>1436.83</ele>
        <time>2021-02-14T11:22:23Z</time>
      </trkpt>
      <trkpt lat="43.82279" lon="6.93713">
        <ele>1436.35</ele>
        <time>2021-02-14T11:22:24Z</time>
      </trkpt>
      <trkpt lat="43.82277" lon="6.9371">
        <ele>1436.35</ele>
        <time>2021-02-14T11:22:25Z</time>
      </trkpt>
      <trkpt lat="43.82264" lon="6.9368">
        <ele>1436.35</ele>
        <time>2021-02-14T11:22:34Z</time>
      </trkpt>
      <trkpt lat="43.82266" lon="6.93677">
        <ele>1436.35</ele>
        <time>2021-02-14T11:22:35Z</time>
      </trkpt>
      <trkpt lat="43.82269" lon="6.93676">
        <ele>1436.35</ele>
        <time>2021-02-14T11:22:36Z</time>
      </trkpt>
      <trkpt lat="43.82272" lon="6.93676">
        <ele>1435.87</ele>
        <time>2021-02-14T11:22:37Z</time>
      </trkpt>
      <trkpt lat="43.82276" lon="6.93677">
        <ele>1435.87</ele>
        <time>2021-02-14T11:22:38Z</time>
      </trkpt>
      <trkpt lat="43.8228" lon="6.9368">
        <ele>1434.91</ele>
        <time>2021-02-14T11:22:39Z</time>
      </trkpt>
      <trkpt lat="43.82284" lon="6.93683">
        <ele>1433.94</ele>
        <time>2021-02-14T11:22:40Z</time>
      </trkpt>
      <trkpt lat="43.8229" lon="6.93686">
        <ele>1432.98</ele>
        <time>2021-02-14T11:22:41Z</time>
      </trkpt>
      <trkpt lat="43.82295" lon="6.93687">
        <ele>1432.5</ele>
        <time>2021-02-14T11:22:42Z</time>
      </trkpt>
      <trkpt lat="43.82301" lon="6.93687">
        <ele>1432.02</ele>
        <time>2021-02-14T11:22:43Z</time>
      </trkpt>
      <trkpt lat="43.82306" lon="6.93686">
        <ele>1432.02</ele>
        <time>2021-02-14T11:22:44Z</time>
      </trkpt>
      <trkpt lat="43.82311" lon="6.93684">
        <ele>1431.54</ele>
        <time>2021-02-14T11:22:45Z</time>
      </trkpt>
      <trkpt lat="43.82316" lon="6.93683">
        <ele>1431.06</ele>
        <time>2021-02-14T11:22:46Z</time>
      </trkpt>
      <trkpt lat="43.82329" lon="6.93682">
        <ele>1430.58</ele>
        <time>2021-02-14T11:22:48Z</time>
      </trkpt>
      <trkpt lat="43.82335" lon="6.93683">
        <ele>1429.62</ele>
        <time>2021-02-14T11:22:49Z</time>
      </trkpt>
      <trkpt lat="43.82342" lon="6.93686">
        <ele>1427.7</ele>
        <time>2021-02-14T11:22:50Z</time>
      </trkpt>
      <trkpt lat="43.82349" lon="6.9369">
        <ele>1427.21</ele>
        <time>2021-02-14T11:22:51Z</time>
      </trkpt>
      <trkpt lat="43.82357" lon="6.93695">
        <ele>1426.73</ele>
        <time>2021-02-14T11:22:52Z</time>
      </trkpt>
      <trkpt lat="43.82361" lon="6.93699">
        <ele>1426.25</ele>
        <time>2021-02-14T11:22:53Z</time>
      </trkpt>
      <trkpt lat="43.82368" lon="6.93704">
        <ele>1425.77</ele>
        <time>2021-02-14T11:22:54Z</time>
      </trkpt>
      <trkpt lat="43.82378" lon="6.93711">
        <ele>1425.77</ele>
        <time>2021-02-14T11:22:56Z</time>
      </trkpt>
      <trkpt lat="43.82383" lon="6.93712">
        <ele>1425.77</ele>
        <time>2021-02-14T11:22:57Z</time>
      </trkpt>
      <trkpt lat="43.82387" lon="6.93711">
        <ele>1425.77</ele>
        <time>2021-02-14T11:22:58Z</time>
      </trkpt>
      <trkpt lat="43.8239" lon="6.93707">
        <ele>1424.81</ele>
        <time>2021-02-14T11:22:59Z</time>
      </trkpt>
      <trkpt lat="43.8239" lon="6.93702">
        <ele>1424.33</ele>
        <time>2021-02-14T11:23:00Z</time>
      </trkpt>
      <trkpt lat="43.82389" lon="6.93698">
        <ele>1423.85</ele>
        <time>2021-02-14T11:23:01Z</time>
      </trkpt>
      <trkpt lat="43.82386" lon="6.93693">
        <ele>1422.89</ele>
        <time>2021-02-14T11:23:02Z</time>
      </trkpt>
      <trkpt lat="43.82383" lon="6.93688">
        <ele>1422.41</ele>
        <time>2021-02-14T11:23:03Z</time>
      </trkpt>
      <trkpt lat="43.82361" lon="6.93654">
        <ele>1419.52</ele>
        <time>2021-02-14T11:23:09Z</time>
      </trkpt>
      <trkpt lat="43.82359" lon="6.93647">
        <ele>1419.52</ele>
        <time>2021-02-14T11:23:10Z</time>
      </trkpt>
      <trkpt lat="43.82356" lon="6.9364">
        <ele>1418.56</ele>
        <time>2021-02-14T11:23:11Z</time>
      </trkpt>
      <trkpt lat="43.82355" lon="6.93632">
        <ele>1417.6</ele>
        <time>2021-02-14T11:23:12Z</time>
      </trkpt>
      <trkpt lat="43.82354" lon="6.93624">
        <ele>1417.12</ele>
        <time>2021-02-14T11:23:13Z</time>
      </trkpt>
      <trkpt lat="43.82352" lon="6.93616">
        <ele>1416.64</ele>
        <time>2021-02-14T11:23:14Z</time>
      </trkpt>
      <trkpt lat="43.82349" lon="6.93607">
        <ele>1416.16</ele>
        <time>2021-02-14T11:23:15Z</time>
      </trkpt>
      <trkpt lat="43.82346" lon="6.936">
        <ele>1415.68</ele>
        <time>2021-02-14T11:23:16Z</time>
      </trkpt>
      <trkpt lat="43.82332" lon="6.93564">
        <ele>1411.83</ele>
        <time>2021-02-14T11:23:20Z</time>
      </trkpt>
      <trkpt lat="43.82317" lon="6.93524">
        <ele>1408.47</ele>
        <time>2021-02-14T11:23:24Z</time>
      </trkpt>
      <trkpt lat="43.82303" lon="6.93493">
        <ele>1408.47</ele>
        <time>2021-02-14T11:23:28Z</time>
      </trkpt>
      <trkpt lat="43.82301" lon="6.93485">
        <ele>1408.47</ele>
        <time>2021-02-14T11:23:29Z</time>
      </trkpt>
      <trkpt lat="43.823" lon="6.93476">
        <ele>1407.51</ele>
        <time>2021-02-14T11:23:30Z</time>
      </trkpt>
      <trkpt lat="43.823" lon="6.93467">
        <ele>1406.07</ele>
        <time>2021-02-14T11:23:31Z</time>
      </trkpt>
      <trkpt lat="43.82301" lon="6.93456">
        <ele>1405.1</ele>
        <time>2021-02-14T11:23:32Z</time>
      </trkpt>
      <trkpt lat="43.82302" lon="6.93445">
        <ele>1403.66</ele>
        <time>2021-02-14T11:23:33Z</time>
      </trkpt>
      <trkpt lat="43.82303" lon="6.9342">
        <ele>1399.82</ele>
        <time>2021-02-14T11:23:35Z</time>
      </trkpt>
      <trkpt lat="43.82302" lon="6.9341">
        <ele>1398.86</ele>
        <time>2021-02-14T11:23:36Z</time>
      </trkpt>
      <trkpt lat="43.82301" lon="6.93398">
        <ele>1397.89</ele>
        <time>2021-02-14T11:23:37Z</time>
      </trkpt>
      <trkpt lat="43.82298" lon="6.93387">
        <ele>1396.93</ele>
        <time>2021-02-14T11:23:38Z</time>
      </trkpt>
      <trkpt lat="43.82293" lon="6.93377">
        <ele>1395.97</ele>
        <time>2021-02-14T11:23:39Z</time>
      </trkpt>
      <trkpt lat="43.82289" lon="6.93369">
        <ele>1395.97</ele>
        <time>2021-02-14T11:23:40Z</time>
      </trkpt>
      <trkpt lat="43.82284" lon="6.93362">
        <ele>1395.97</ele>
        <time>2021-02-14T11:23:41Z</time>
      </trkpt>
      <trkpt lat="43.8228" lon="6.93355">
        <ele>1395.97</ele>
        <time>2021-02-14T11:23:42Z</time>
      </trkpt>
      <trkpt lat="43.82277" lon="6.93347">
        <ele>1395.49</ele>
        <time>2021-02-14T11:23:43Z</time>
      </trkpt>
      <trkpt lat="43.82277" lon="6.93341">
        <ele>1395.49</ele>
        <time>2021-02-14T11:23:44Z</time>
      </trkpt>
      <trkpt lat="43.82279" lon="6.93336">
        <ele>1395.49</ele>
        <time>2021-02-14T11:23:45Z</time>
      </trkpt>
      <trkpt lat="43.82282" lon="6.93334">
        <ele>1395.01</ele>
        <time>2021-02-14T11:23:46Z</time>
      </trkpt>
      <trkpt lat="43.82285" lon="6.93332">
        <ele>1395.01</ele>
        <time>2021-02-14T11:23:47Z</time>
      </trkpt>
      <trkpt lat="43.8229" lon="6.93332">
        <ele>1394.05</ele>
        <time>2021-02-14T11:23:48Z</time>
      </trkpt>
      <trkpt lat="43.82294" lon="6.93332">
        <ele>1393.57</ele>
        <time>2021-02-14T11:23:49Z</time>
      </trkpt>
      <trkpt lat="43.823" lon="6.93334">
        <ele>1393.09</ele>
        <time>2021-02-14T11:23:50Z</time>
      </trkpt>
      <trkpt lat="43.82305" lon="6.93337">
        <ele>1392.61</ele>
        <time>2021-02-14T11:23:51Z</time>
      </trkpt>
      <trkpt lat="43.8231" lon="6.9334">
        <ele>1392.13</ele>
        <time>2021-02-14T11:23:52Z</time>
      </trkpt>
      <trkpt lat="43.82316" lon="6.93345">
        <ele>1391.65</ele>
        <time>2021-02-14T11:23:53Z</time>
      </trkpt>
      <trkpt lat="43.82321" lon="6.9335">
        <ele>1391.17</ele>
        <time>2021-02-14T11:23:54Z</time>
      </trkpt>
      <trkpt lat="43.82326" lon="6.93356">
        <ele>1390.2</ele>
        <time>2021-02-14T11:23:55Z</time>
      </trkpt>
      <trkpt lat="43.8233" lon="6.93362">
        <ele>1390.2</ele>
        <time>2021-02-14T11:23:56Z</time>
      </trkpt>
      <trkpt lat="43.82357" lon="6.93401">
        <ele>1388.28</ele>
        <time>2021-02-14T11:24:03Z</time>
      </trkpt>
      <trkpt lat="43.82367" lon="6.93414">
        <ele>1386.36</ele>
        <time>2021-02-14T11:24:05Z</time>
      </trkpt>
      <trkpt lat="43.82371" lon="6.93421">
        <ele>1386.36</ele>
        <time>2021-02-14T11:24:06Z</time>
      </trkpt>
      <trkpt lat="43.82377" lon="6.93434">
        <ele>1385.88</ele>
        <time>2021-02-14T11:24:08Z</time>
      </trkpt>
      <trkpt lat="43.8238" lon="6.9344">
        <ele>1385.88</ele>
        <time>2021-02-14T11:24:09Z</time>
      </trkpt>
      <trkpt lat="43.82384" lon="6.93445">
        <ele>1384.92</ele>
        <time>2021-02-14T11:24:10Z</time>
      </trkpt>
      <trkpt lat="43.82389" lon="6.93449">
        <ele>1384.92</ele>
        <time>2021-02-14T11:24:11Z</time>
      </trkpt>
      <trkpt lat="43.82393" lon="6.93452">
        <ele>1384.92</ele>
        <time>2021-02-14T11:24:12Z</time>
      </trkpt>
      <trkpt lat="43.82397" lon="6.93455">
        <ele>1384.92</ele>
        <time>2021-02-14T11:24:13Z</time>
      </trkpt>
      <trkpt lat="43.82401" lon="6.93458">
        <ele>1384.92</ele>
        <time>2021-02-14T11:24:14Z</time>
      </trkpt>
      <trkpt lat="43.82406" lon="6.9346">
        <ele>1384.92</ele>
        <time>2021-02-14T11:24:15Z</time>
      </trkpt>
      <trkpt lat="43.82409" lon="6.93461">
        <ele>1384.92</ele>
        <time>2021-02-14T11:24:16Z</time>
      </trkpt>
      <trkpt lat="43.82414" lon="6.93463">
        <ele>1384.92</ele>
        <time>2021-02-14T11:24:17Z</time>
      </trkpt>
      <trkpt lat="43.82446" lon="6.93469">
        <ele>1384.92</ele>
        <time>2021-02-14T11:24:27Z</time>
      </trkpt>
      <trkpt lat="43.82447" lon="6.93465">
        <ele>1384.44</ele>
        <time>2021-02-14T11:24:28Z</time>
      </trkpt>
      <trkpt lat="43.82448" lon="6.9346">
        <ele>1383.96</ele>
        <time>2021-02-14T11:24:29Z</time>
      </trkpt>
      <trkpt lat="43.82448" lon="6.93455">
        <ele>1383.47</ele>
        <time>2021-02-14T11:24:30Z</time>
      </trkpt>
      <trkpt lat="43.82446" lon="6.9345">
        <ele>1382.99</ele>
        <time>2021-02-14T11:24:31Z</time>
      </trkpt>
      <trkpt lat="43.82444" lon="6.93444">
        <ele>1382.03</ele>
        <time>2021-02-14T11:24:32Z</time>
      </trkpt>
      <trkpt lat="43.82442" lon="6.93438">
        <ele>1381.07</ele>
        <time>2021-02-14T11:24:33Z</time>
      </trkpt>
      <trkpt lat="43.82439" lon="6.93432">
        <ele>1380.59</ele>
        <time>2021-02-14T11:24:34Z</time>
      </trkpt>
      <trkpt lat="43.82438" lon="6.93424">
        <ele>1380.11</ele>
        <time>2021-02-14T11:24:35Z</time>
      </trkpt>
      <trkpt lat="43.82437" lon="6.93417">
        <ele>1380.11</ele>
        <time>2021-02-14T11:24:36Z</time>
      </trkpt>
      <trkpt lat="43.8243" lon="6.9335">
        <ele>1379.15</ele>
        <time>2021-02-14T11:24:48Z</time>
      </trkpt>
      <trkpt lat="43.82431" lon="6.93346">
        <ele>1379.15</ele>
        <time>2021-02-14T11:24:49Z</time>
      </trkpt>
      <trkpt lat="43.82433" lon="6.93342">
        <ele>1379.15</ele>
        <time>2021-02-14T11:24:50Z</time>
      </trkpt>
      <trkpt lat="43.82436" lon="6.9334">
        <ele>1379.15</ele>
        <time>2021-02-14T11:24:51Z</time>
      </trkpt>
      <trkpt lat="43.8244" lon="6.9334">
        <ele>1377.71</ele>
        <time>2021-02-14T11:24:52Z</time>
      </trkpt>
      <trkpt lat="43.82445" lon="6.93341">
        <ele>1376.75</ele>
        <time>2021-02-14T11:24:53Z</time>
      </trkpt>
      <trkpt lat="43.8245" lon="6.93343">
        <ele>1376.26</ele>
        <time>2021-02-14T11:24:54Z</time>
      </trkpt>
      <trkpt lat="43.82454" lon="6.93346">
        <ele>1375.3</ele>
        <time>2021-02-14T11:24:55Z</time>
      </trkpt>
      <trkpt lat="43.82467" lon="6.93353">
        <ele>1372.9</ele>
        <time>2021-02-14T11:24:57Z</time>
      </trkpt>
      <trkpt lat="43.82474" lon="6.93356">
        <ele>1371.94</ele>
        <time>2021-02-14T11:24:58Z</time>
      </trkpt>
      <trkpt lat="43.82481" lon="6.93358">
        <ele>1371.94</ele>
        <time>2021-02-14T11:24:59Z</time>
      </trkpt>
      <trkpt lat="43.82487" lon="6.93359">
        <ele>1371.94</ele>
        <time>2021-02-14T11:25:00Z</time>
      </trkpt>
      <trkpt lat="43.82504" lon="6.9336">
        <ele>1371.46</ele>
        <time>2021-02-14T11:25:03Z</time>
      </trkpt>
      <trkpt lat="43.8251" lon="6.93359">
        <ele>1370.98</ele>
        <time>2021-02-14T11:25:04Z</time>
      </trkpt>
      <trkpt lat="43.82514" lon="6.93356">
        <ele>1370.98</ele>
        <time>2021-02-14T11:25:05Z</time>
      </trkpt>
      <trkpt lat="43.82517" lon="6.93351">
        <ele>1370.98</ele>
        <time>2021-02-14T11:25:06Z</time>
      </trkpt>
      <trkpt lat="43.82519" lon="6.93346">
        <ele>1370.98</ele>
        <time>2021-02-14T11:25:07Z</time>
      </trkpt>
      <trkpt lat="43.82519" lon="6.93342">
        <ele>1370.98</ele>
        <time>2021-02-14T11:25:08Z</time>
      </trkpt>
      <trkpt lat="43.8252" lon="6.93338">
        <ele>1370.98</ele>
        <time>2021-02-14T11:25:09Z</time>
      </trkpt>
      <trkpt lat="43.82519" lon="6.93334">
        <ele>1370.98</ele>
        <time>2021-02-14T11:25:10Z</time>
      </trkpt>
      <trkpt lat="43.82517" lon="6.93287">
        <ele>1370.98</ele>
        <time>2021-02-14T11:25:21Z</time>
      </trkpt>
      <trkpt lat="43.82529" lon="6.93228">
        <ele>1370.5</ele>
        <time>2021-02-14T11:25:33Z</time>
      </trkpt>
      <trkpt lat="43.82558" lon="6.93199">
        <ele>1367.61</ele>
        <time>2021-02-14T11:25:41Z</time>
      </trkpt>
      <trkpt lat="43.82562" lon="6.93197">
        <ele>1368.09</ele>
        <time>2021-02-14T11:25:42Z</time>
      </trkpt>
      <trkpt lat="43.82567" lon="6.93197">
        <ele>1368.09</ele>
        <time>2021-02-14T11:25:43Z</time>
      </trkpt>
      <trkpt lat="43.82571" lon="6.93197">
        <ele>1368.09</ele>
        <time>2021-02-14T11:25:44Z</time>
      </trkpt>
      <trkpt lat="43.82575" lon="6.932">
        <ele>1368.09</ele>
        <time>2021-02-14T11:25:45Z</time>
      </trkpt>
      <trkpt lat="43.82579" lon="6.93203">
        <ele>1368.09</ele>
        <time>2021-02-14T11:25:46Z</time>
      </trkpt>
      <trkpt lat="43.82582" lon="6.93207">
        <ele>1368.09</ele>
        <time>2021-02-14T11:25:47Z</time>
      </trkpt>
      <trkpt lat="43.82585" lon="6.93212">
        <ele>1368.09</ele>
        <time>2021-02-14T11:25:48Z</time>
      </trkpt>
      <trkpt lat="43.82587" lon="6.93218">
        <ele>1367.61</ele>
        <time>2021-02-14T11:25:49Z</time>
      </trkpt>
      <trkpt lat="43.82589" lon="6.93224">
        <ele>1367.61</ele>
        <time>2021-02-14T11:25:50Z</time>
      </trkpt>
      <trkpt lat="43.8259" lon="6.9323">
        <ele>1367.13</ele>
        <time>2021-02-14T11:25:51Z</time>
      </trkpt>
      <trkpt lat="43.82595" lon="6.93249">
        <ele>1366.17</ele>
        <time>2021-02-14T11:25:54Z</time>
      </trkpt>
      <trkpt lat="43.82599" lon="6.93317">
        <ele>1365.69</ele>
        <time>2021-02-14T11:26:06Z</time>
      </trkpt>
      <trkpt lat="43.82596" lon="6.93361">
        <ele>1365.69</ele>
        <time>2021-02-14T11:26:17Z</time>
      </trkpt>
      <trkpt lat="43.82588" lon="6.93375">
        <ele>1368.09</ele>
        <time>2021-02-14T11:26:24Z</time>
      </trkpt>
      <trkpt lat="43.82587" lon="6.93377">
        <ele>1368.09</ele>
        <time>2021-02-14T11:26:25Z</time>
      </trkpt>
      <trkpt lat="43.82586" lon="6.93378">
        <ele>1368.09</ele>
        <time>2021-02-14T11:26:26Z</time>
      </trkpt>
      <trkpt lat="43.82586" lon="6.9338">
        <ele>1368.09</ele>
        <time>2021-02-14T11:26:27Z</time>
      </trkpt>
      <trkpt lat="43.82585" lon="6.93382">
        <ele>1368.57</ele>
        <time>2021-02-14T11:26:28Z</time>
      </trkpt>
      <trkpt lat="43.82584" lon="6.93384">
        <ele>1368.57</ele>
        <time>2021-02-14T11:26:29Z</time>
      </trkpt>
      <trkpt lat="43.82581" lon="6.934">
        <ele>1370.5</ele>
        <time>2021-02-14T11:26:38Z</time>
      </trkpt>
      <trkpt lat="43.82581" lon="6.93401">
        <ele>1370.5</ele>
        <time>2021-02-14T11:26:39Z</time>
      </trkpt>
      <trkpt lat="43.82581" lon="6.93403">
        <ele>1370.5</ele>
        <time>2021-02-14T11:26:40Z</time>
      </trkpt>
      <trkpt lat="43.8258" lon="6.93405">
        <ele>1370.98</ele>
        <time>2021-02-14T11:26:41Z</time>
      </trkpt>
      <trkpt lat="43.8258" lon="6.93408">
        <ele>1370.98</ele>
        <time>2021-02-14T11:26:43Z</time>
      </trkpt>
      <trkpt lat="43.8258" lon="6.9341">
        <ele>1370.98</ele>
        <time>2021-02-14T11:26:44Z</time>
      </trkpt>
      <trkpt lat="43.8258" lon="6.93412">
        <ele>1371.46</ele>
        <time>2021-02-14T11:26:45Z</time>
      </trkpt>
      <trkpt lat="43.8258" lon="6.93414">
        <ele>1371.94</ele>
        <time>2021-02-14T11:26:46Z</time>
      </trkpt>
      <trkpt lat="43.82579" lon="6.93421">
        <ele>1372.9</ele>
        <time>2021-02-14T11:26:50Z</time>
      </trkpt>
      <trkpt lat="43.82579" lon="6.93422">
        <ele>1372.9</ele>
        <time>2021-02-14T11:26:51Z</time>
      </trkpt>
      <trkpt lat="43.82579" lon="6.93424">
        <ele>1373.38</ele>
        <time>2021-02-14T11:26:52Z</time>
      </trkpt>
      <trkpt lat="43.82579" lon="6.93425">
        <ele>1373.38</ele>
        <time>2021-02-14T11:26:53Z</time>
      </trkpt>
      <trkpt lat="43.82579" lon="6.93427">
        <ele>1373.38</ele>
        <time>2021-02-14T11:26:54Z</time>
      </trkpt>
      <trkpt lat="43.82579" lon="6.93428">
        <ele>1373.38</ele>
        <time>2021-02-14T11:26:55Z</time>
      </trkpt>
      <trkpt lat="43.82577" lon="6.93441">
        <ele>1375.3</ele>
        <time>2021-02-14T11:27:04Z</time>
      </trkpt>
      <trkpt lat="43.82577" lon="6.93451">
        <ele>1376.26</ele>
        <time>2021-02-14T11:27:11Z</time>
      </trkpt>
      <trkpt lat="43.82578" lon="6.93453">
        <ele>1376.26</ele>
        <time>2021-02-14T11:27:12Z</time>
      </trkpt>
      <trkpt lat="43.82578" lon="6.93459">
        <ele>1377.23</ele>
        <time>2021-02-14T11:27:16Z</time>
      </trkpt>
      <trkpt lat="43.8258" lon="6.93467">
        <ele>1378.19</ele>
        <time>2021-02-14T11:27:23Z</time>
      </trkpt>
      <trkpt lat="43.82582" lon="6.93473">
        <ele>1379.15</ele>
        <time>2021-02-14T11:27:28Z</time>
      </trkpt>
      <trkpt lat="43.82587" lon="6.93486">
        <ele>1381.07</ele>
        <time>2021-02-14T11:27:37Z</time>
      </trkpt>
      <trkpt lat="43.8259" lon="6.93493">
        <ele>1381.07</ele>
        <time>2021-02-14T11:27:42Z</time>
      </trkpt>
      <trkpt lat="43.8259" lon="6.93494">
        <ele>1381.55</ele>
        <time>2021-02-14T11:27:43Z</time>
      </trkpt>
      <trkpt lat="43.82591" lon="6.93495">
        <ele>1381.55</ele>
        <time>2021-02-14T11:27:44Z</time>
      </trkpt>
      <trkpt lat="43.82591" lon="6.93497">
        <ele>1382.03</ele>
        <time>2021-02-14T11:27:45Z</time>
      </trkpt>
      <trkpt lat="43.82594" lon="6.93502">
        <ele>1382.03</ele>
        <time>2021-02-14T11:27:50Z</time>
      </trkpt>
      <trkpt lat="43.82596" lon="6.93505">
        <ele>1382.99</ele>
        <time>2021-02-14T11:27:53Z</time>
      </trkpt>
      <trkpt lat="43.82597" lon="6.93507">
        <ele>1382.99</ele>
        <time>2021-02-14T11:27:54Z</time>
      </trkpt>
      <trkpt lat="43.82598" lon="6.9351">
        <ele>1383.47</ele>
        <time>2021-02-14T11:27:57Z</time>
      </trkpt>
      <trkpt lat="43.82601" lon="6.9352">
        <ele>1384.44</ele>
        <time>2021-02-14T11:28:05Z</time>
      </trkpt>
      <trkpt lat="43.82601" lon="6.93527">
        <ele>1384.92</ele>
        <time>2021-02-14T11:28:11Z</time>
      </trkpt>
      <trkpt lat="43.82601" lon="6.93528">
        <ele>1385.4</ele>
        <time>2021-02-14T11:28:12Z</time>
      </trkpt>
      <trkpt lat="43.82602" lon="6.93538">
        <ele>1386.36</ele>
        <time>2021-02-14T11:28:19Z</time>
      </trkpt>
      <trkpt lat="43.82603" lon="6.9354">
        <ele>1386.84</ele>
        <time>2021-02-14T11:28:20Z</time>
      </trkpt>
      <trkpt lat="43.82603" lon="6.93541">
        <ele>1386.84</ele>
        <time>2021-02-14T11:28:21Z</time>
      </trkpt>
      <trkpt lat="43.82604" lon="6.93553">
        <ele>1388.28</ele>
        <time>2021-02-14T11:28:30Z</time>
      </trkpt>
      <trkpt lat="43.82606" lon="6.93565">
        <ele>1389.24</ele>
        <time>2021-02-14T11:28:39Z</time>
      </trkpt>
      <trkpt lat="43.82607" lon="6.93572">
        <ele>1390.2</ele>
        <time>2021-02-14T11:28:44Z</time>
      </trkpt>
      <trkpt lat="43.82608" lon="6.93582">
        <ele>1391.17</ele>
        <time>2021-02-14T11:28:51Z</time>
      </trkpt>
      <trkpt lat="43.82608" lon="6.93583">
        <ele>1392.13</ele>
        <time>2021-02-14T11:28:52Z</time>
      </trkpt>
      <trkpt lat="43.8261" lon="6.93589">
        <ele>1392.61</ele>
        <time>2021-02-14T11:28:57Z</time>
      </trkpt>
      <trkpt lat="43.82611" lon="6.93594">
        <ele>1392.61</ele>
        <time>2021-02-14T11:29:00Z</time>
      </trkpt>
      <trkpt lat="43.82613" lon="6.93603">
        <ele>1393.57</ele>
        <time>2021-02-14T11:29:07Z</time>
      </trkpt>
      <trkpt lat="43.82614" lon="6.93605">
        <ele>1393.57</ele>
        <time>2021-02-14T11:29:08Z</time>
      </trkpt>
      <trkpt lat="43.82615" lon="6.93617">
        <ele>1395.49</ele>
        <time>2021-02-14T11:29:17Z</time>
      </trkpt>
      <trkpt lat="43.82616" lon="6.9363">
        <ele>1396.45</ele>
        <time>2021-02-14T11:29:26Z</time>
      </trkpt>
      <trkpt lat="43.82616" lon="6.93631">
        <ele>1396.93</ele>
        <time>2021-02-14T11:29:27Z</time>
      </trkpt>
      <trkpt lat="43.82616" lon="6.93633">
        <ele>1396.93</ele>
        <time>2021-02-14T11:29:28Z</time>
      </trkpt>
      <trkpt lat="43.82617" lon="6.93635">
        <ele>1396.93</ele>
        <time>2021-02-14T11:29:29Z</time>
      </trkpt>
      <trkpt lat="43.82617" lon="6.93636">
        <ele>1396.93</ele>
        <time>2021-02-14T11:29:30Z</time>
      </trkpt>
      <trkpt lat="43.82616" lon="6.93638">
        <ele>1397.41</ele>
        <time>2021-02-14T11:29:31Z</time>
      </trkpt>
      <trkpt lat="43.82617" lon="6.93649">
        <ele>1398.37</ele>
        <time>2021-02-14T11:29:39Z</time>
      </trkpt>
      <trkpt lat="43.82618" lon="6.93661">
        <ele>1399.82</ele>
        <time>2021-02-14T11:29:48Z</time>
      </trkpt>
      <trkpt lat="43.82618" lon="6.93666">
        <ele>1400.3</ele>
        <time>2021-02-14T11:29:51Z</time>
      </trkpt>
      <trkpt lat="43.82618" lon="6.93668">
        <ele>1400.3</ele>
        <time>2021-02-14T11:29:52Z</time>
      </trkpt>
      <trkpt lat="43.82618" lon="6.93669">
        <ele>1400.78</ele>
        <time>2021-02-14T11:29:53Z</time>
      </trkpt>
      <trkpt lat="43.82618" lon="6.93671">
        <ele>1400.78</ele>
        <time>2021-02-14T11:29:54Z</time>
      </trkpt>
      <trkpt lat="43.82618" lon="6.93673">
        <ele>1400.78</ele>
        <time>2021-02-14T11:29:55Z</time>
      </trkpt>
      <trkpt lat="43.82618" lon="6.93675">
        <ele>1401.26</ele>
        <time>2021-02-14T11:29:56Z</time>
      </trkpt>
      <trkpt lat="43.82618" lon="6.93676">
        <ele>1401.26</ele>
        <time>2021-02-14T11:29:57Z</time>
      </trkpt>
      <trkpt lat="43.82618" lon="6.93678">
        <ele>1401.26</ele>
        <time>2021-02-14T11:29:58Z</time>
      </trkpt>
      <trkpt lat="43.82619" lon="6.93679">
        <ele>1401.26</ele>
        <time>2021-02-14T11:29:59Z</time>
      </trkpt>
      <trkpt lat="43.82619" lon="6.93684">
        <ele>1401.74</ele>
        <time>2021-02-14T11:30:02Z</time>
      </trkpt>
      <trkpt lat="43.82619" lon="6.93686">
        <ele>1402.22</ele>
        <time>2021-02-14T11:30:03Z</time>
      </trkpt>
      <trkpt lat="43.82619" lon="6.93687">
        <ele>1402.22</ele>
        <time>2021-02-14T11:30:04Z</time>
      </trkpt>
      <trkpt lat="43.82619" lon="6.93689">
        <ele>1402.22</ele>
        <time>2021-02-14T11:30:05Z</time>
      </trkpt>
      <trkpt lat="43.82619" lon="6.93691">
        <ele>1402.7</ele>
        <time>2021-02-14T11:30:06Z</time>
      </trkpt>
      <trkpt lat="43.82619" lon="6.93692">
        <ele>1402.7</ele>
        <time>2021-02-14T11:30:07Z</time>
      </trkpt>
      <trkpt lat="43.82619" lon="6.93694">
        <ele>1402.7</ele>
        <time>2021-02-14T11:30:08Z</time>
      </trkpt>
      <trkpt lat="43.82619" lon="6.93696">
        <ele>1402.7</ele>
        <time>2021-02-14T11:30:09Z</time>
      </trkpt>
      <trkpt lat="43.82619" lon="6.93703">
        <ele>1403.66</ele>
        <time>2021-02-14T11:30:14Z</time>
      </trkpt>
      <trkpt lat="43.82619" lon="6.93705">
        <ele>1403.66</ele>
        <time>2021-02-14T11:30:15Z</time>
      </trkpt>
      <trkpt lat="43.8262" lon="6.93715">
        <ele>1405.1</ele>
        <time>2021-02-14T11:30:22Z</time>
      </trkpt>
      <trkpt lat="43.82619" lon="6.93716">
        <ele>1405.1</ele>
        <time>2021-02-14T11:30:23Z</time>
      </trkpt>
      <trkpt lat="43.8262" lon="6.93727">
        <ele>1406.07</ele>
        <time>2021-02-14T11:30:31Z</time>
      </trkpt>
      <trkpt lat="43.8262" lon="6.93738">
        <ele>1407.03</ele>
        <time>2021-02-14T11:30:39Z</time>
      </trkpt>
      <trkpt lat="43.8262" lon="6.93742">
        <ele>1407.51</ele>
        <time>2021-02-14T11:30:42Z</time>
      </trkpt>
      <trkpt lat="43.8262" lon="6.93743">
        <ele>1407.51</ele>
        <time>2021-02-14T11:30:43Z</time>
      </trkpt>
      <trkpt lat="43.8262" lon="6.93745">
        <ele>1407.51</ele>
        <time>2021-02-14T11:30:44Z</time>
      </trkpt>
      <trkpt lat="43.8262" lon="6.93746">
        <ele>1407.99</ele>
        <time>2021-02-14T11:30:45Z</time>
      </trkpt>
      <trkpt lat="43.82619" lon="6.93748">
        <ele>1407.99</ele>
        <time>2021-02-14T11:30:46Z</time>
      </trkpt>
      <trkpt lat="43.82619" lon="6.93749">
        <ele>1408.47</ele>
        <time>2021-02-14T11:30:47Z</time>
      </trkpt>
      <trkpt lat="43.82619" lon="6.93751">
        <ele>1408.47</ele>
        <time>2021-02-14T11:30:48Z</time>
      </trkpt>
      <trkpt lat="43.82619" lon="6.93759">
        <ele>1409.43</ele>
        <time>2021-02-14T11:30:53Z</time>
      </trkpt>
      <trkpt lat="43.82619" lon="6.93766">
        <ele>1409.91</ele>
        <time>2021-02-14T11:30:57Z</time>
      </trkpt>
      <trkpt lat="43.82619" lon="6.93768">
        <ele>1409.91</ele>
        <time>2021-02-14T11:30:58Z</time>
      </trkpt>
      <trkpt lat="43.82619" lon="6.9377">
        <ele>1410.39</ele>
        <time>2021-02-14T11:30:59Z</time>
      </trkpt>
      <trkpt lat="43.82619" lon="6.93772">
        <ele>1410.39</ele>
        <time>2021-02-14T11:31:00Z</time>
      </trkpt>
      <trkpt lat="43.82619" lon="6.93774">
        <ele>1410.39</ele>
        <time>2021-02-14T11:31:01Z</time>
      </trkpt>
      <trkpt lat="43.82619" lon="6.93775">
        <ele>1410.39</ele>
        <time>2021-02-14T11:31:02Z</time>
      </trkpt>
      <trkpt lat="43.82619" lon="6.93777">
        <ele>1410.87</ele>
        <time>2021-02-14T11:31:03Z</time>
      </trkpt>
      <trkpt lat="43.82619" lon="6.9378">
        <ele>1410.87</ele>
        <time>2021-02-14T11:31:04Z</time>
      </trkpt>
      <trkpt lat="43.82619" lon="6.93781">
        <ele>1410.87</ele>
        <time>2021-02-14T11:31:05Z</time>
      </trkpt>
      <trkpt lat="43.82619" lon="6.93783">
        <ele>1410.87</ele>
        <time>2021-02-14T11:31:06Z</time>
      </trkpt>
      <trkpt lat="43.82619" lon="6.93786">
        <ele>1411.35</ele>
        <time>2021-02-14T11:31:07Z</time>
      </trkpt>
      <trkpt lat="43.82619" lon="6.93788">
        <ele>1411.35</ele>
        <time>2021-02-14T11:31:08Z</time>
      </trkpt>
      <trkpt lat="43.82619" lon="6.9379">
        <ele>1411.83</ele>
        <time>2021-02-14T11:31:09Z</time>
      </trkpt>
      <trkpt lat="43.82619" lon="6.93792">
        <ele>1411.83</ele>
        <time>2021-02-14T11:31:10Z</time>
      </trkpt>
      <trkpt lat="43.82619" lon="6.93794">
        <ele>1411.83</ele>
        <time>2021-02-14T11:31:11Z</time>
      </trkpt>
      <trkpt lat="43.82618" lon="6.93803">
        <ele>1412.79</ele>
        <time>2021-02-14T11:31:15Z</time>
      </trkpt>
      <trkpt lat="43.82618" lon="6.93805">
        <ele>1412.79</ele>
        <time>2021-02-14T11:31:16Z</time>
      </trkpt>
      <trkpt lat="43.82618" lon="6.93806">
        <ele>1412.79</ele>
        <time>2021-02-14T11:31:17Z</time>
      </trkpt>
      <trkpt lat="43.82617" lon="6.93819">
        <ele>1413.76</ele>
        <time>2021-02-14T11:31:25Z</time>
      </trkpt>
      <trkpt lat="43.82618" lon="6.93837">
        <ele>1415.68</ele>
        <time>2021-02-14T11:31:38Z</time>
      </trkpt>
      <trkpt lat="43.82619" lon="6.93845">
        <ele>1416.16</ele>
        <time>2021-02-14T11:31:43Z</time>
      </trkpt>
      <trkpt lat="43.82619" lon="6.93847">
        <ele>1416.16</ele>
        <time>2021-02-14T11:31:44Z</time>
      </trkpt>
      <trkpt lat="43.8262" lon="6.93861">
        <ele>1417.6</ele>
        <time>2021-02-14T11:31:53Z</time>
      </trkpt>
      <trkpt lat="43.8262" lon="6.93862">
        <ele>1417.6</ele>
        <time>2021-02-14T11:31:54Z</time>
      </trkpt>
      <trkpt lat="43.82621" lon="6.93878">
        <ele>1419.52</ele>
        <time>2021-02-14T11:32:05Z</time>
      </trkpt>
      <trkpt lat="43.8262" lon="6.9391">
        <ele>1420.97</ele>
        <time>2021-02-14T11:32:20Z</time>
      </trkpt>
      <trkpt lat="43.8262" lon="6.93922">
        <ele>1421.93</ele>
        <time>2021-02-14T11:32:25Z</time>
      </trkpt>
      <trkpt lat="43.8262" lon="6.93924">
        <ele>1421.93</ele>
        <time>2021-02-14T11:32:26Z</time>
      </trkpt>
      <trkpt lat="43.8262" lon="6.93926">
        <ele>1422.89</ele>
        <time>2021-02-14T11:32:27Z</time>
      </trkpt>
      <trkpt lat="43.8262" lon="6.93928">
        <ele>1422.89</ele>
        <time>2021-02-14T11:32:28Z</time>
      </trkpt>
      <trkpt lat="43.8262" lon="6.93931">
        <ele>1422.89</ele>
        <time>2021-02-14T11:32:29Z</time>
      </trkpt>
      <trkpt lat="43.82621" lon="6.93933">
        <ele>1422.89</ele>
        <time>2021-02-14T11:32:30Z</time>
      </trkpt>
      <trkpt lat="43.82621" lon="6.93935">
        <ele>1423.37</ele>
        <time>2021-02-14T11:32:31Z</time>
      </trkpt>
      <trkpt lat="43.82621" lon="6.93937">
        <ele>1423.37</ele>
        <time>2021-02-14T11:32:32Z</time>
      </trkpt>
      <trkpt lat="43.82621" lon="6.93939">
        <ele>1423.37</ele>
        <time>2021-02-14T11:32:33Z</time>
      </trkpt>
      <trkpt lat="43.82621" lon="6.93941">
        <ele>1423.85</ele>
        <time>2021-02-14T11:32:34Z</time>
      </trkpt>
      <trkpt lat="43.82621" lon="6.93944">
        <ele>1423.85</ele>
        <time>2021-02-14T11:32:36Z</time>
      </trkpt>
      <trkpt lat="43.82621" lon="6.93946">
        <ele>1423.85</ele>
        <time>2021-02-14T11:32:37Z</time>
      </trkpt>
      <trkpt lat="43.82621" lon="6.93948">
        <ele>1423.85</ele>
        <time>2021-02-14T11:32:38Z</time>
      </trkpt>
      <trkpt lat="43.82622" lon="6.93951">
        <ele>1424.33</ele>
        <time>2021-02-14T11:32:39Z</time>
      </trkpt>
      <trkpt lat="43.82622" lon="6.93953">
        <ele>1424.33</ele>
        <time>2021-02-14T11:32:40Z</time>
      </trkpt>
      <trkpt lat="43.82622" lon="6.93955">
        <ele>1424.33</ele>
        <time>2021-02-14T11:32:41Z</time>
      </trkpt>
      <trkpt lat="43.82623" lon="6.93958">
        <ele>1424.33</ele>
        <time>2021-02-14T11:32:42Z</time>
      </trkpt>
      <trkpt lat="43.82623" lon="6.93961">
        <ele>1424.81</ele>
        <time>2021-02-14T11:32:43Z</time>
      </trkpt>
      <trkpt lat="43.82624" lon="6.93963">
        <ele>1424.81</ele>
        <time>2021-02-14T11:32:44Z</time>
      </trkpt>
      <trkpt lat="43.82625" lon="6.93965">
        <ele>1424.81</ele>
        <time>2021-02-14T11:32:45Z</time>
      </trkpt>
      <trkpt lat="43.82625" lon="6.93967">
        <ele>1424.81</ele>
        <time>2021-02-14T11:32:46Z</time>
      </trkpt>
      <trkpt lat="43.82626" lon="6.93969">
        <ele>1424.81</ele>
        <time>2021-02-14T11:32:47Z</time>
      </trkpt>
      <trkpt lat="43.82627" lon="6.93972">
        <ele>1424.81</ele>
        <time>2021-02-14T11:32:48Z</time>
      </trkpt>
      <trkpt lat="43.82632" lon="6.93981">
        <ele>1425.29</ele>
        <time>2021-02-14T11:32:52Z</time>
      </trkpt>
      <trkpt lat="43.82633" lon="6.93983">
        <ele>1425.77</ele>
        <time>2021-02-14T11:32:53Z</time>
      </trkpt>
      <trkpt lat="43.82634" lon="6.93985">
        <ele>1425.77</ele>
        <time>2021-02-14T11:32:54Z</time>
      </trkpt>
      <trkpt lat="43.82634" lon="6.93987">
        <ele>1425.77</ele>
        <time>2021-02-14T11:32:55Z</time>
      </trkpt>
      <trkpt lat="43.82635" lon="6.93988">
        <ele>1425.77</ele>
        <time>2021-02-14T11:32:56Z</time>
      </trkpt>
      <trkpt lat="43.82636" lon="6.9399">
        <ele>1426.73</ele>
        <time>2021-02-14T11:32:57Z</time>
      </trkpt>
      <trkpt lat="43.82637" lon="6.93992">
        <ele>1426.73</ele>
        <time>2021-02-14T11:32:58Z</time>
      </trkpt>
      <trkpt lat="43.82637" lon="6.93994">
        <ele>1426.73</ele>
        <time>2021-02-14T11:32:59Z</time>
      </trkpt>
      <trkpt lat="43.82637" lon="6.93997">
        <ele>1427.21</ele>
        <time>2021-02-14T11:33:00Z</time>
      </trkpt>
      <trkpt lat="43.82638" lon="6.93999">
        <ele>1427.21</ele>
        <time>2021-02-14T11:33:01Z</time>
      </trkpt>
      <trkpt lat="43.82638" lon="6.94001">
        <ele>1427.21</ele>
        <time>2021-02-14T11:33:02Z</time>
      </trkpt>
      <trkpt lat="43.82638" lon="6.94004">
        <ele>1427.21</ele>
        <time>2021-02-14T11:33:03Z</time>
      </trkpt>
      <trkpt lat="43.82637" lon="6.94007">
        <ele>1427.21</ele>
        <time>2021-02-14T11:33:04Z</time>
      </trkpt>
      <trkpt lat="43.82637" lon="6.94011">
        <ele>1427.21</ele>
        <time>2021-02-14T11:33:05Z</time>
      </trkpt>
      <trkpt lat="43.82636" lon="6.94015">
        <ele>1427.21</ele>
        <time>2021-02-14T11:33:06Z</time>
      </trkpt>
      <trkpt lat="43.82619" lon="6.94062">
        <ele>1424.81</ele>
        <time>2021-02-14T11:33:17Z</time>
      </trkpt>
      <trkpt lat="43.82623" lon="6.94078">
        <ele>1424.81</ele>
        <time>2021-02-14T11:33:22Z</time>
      </trkpt>
      <trkpt lat="43.82625" lon="6.9408">
        <ele>1424.81</ele>
        <time>2021-02-14T11:33:23Z</time>
      </trkpt>
      <trkpt lat="43.82627" lon="6.94083">
        <ele>1424.81</ele>
        <time>2021-02-14T11:33:24Z</time>
      </trkpt>
      <trkpt lat="43.82629" lon="6.94085">
        <ele>1424.81</ele>
        <time>2021-02-14T11:33:25Z</time>
      </trkpt>
      <trkpt lat="43.82631" lon="6.94087">
        <ele>1424.81</ele>
        <time>2021-02-14T11:33:26Z</time>
      </trkpt>
      <trkpt lat="43.82659" lon="6.94108">
        <ele>1424.33</ele>
        <time>2021-02-14T11:33:37Z</time>
      </trkpt>
      <trkpt lat="43.82694" lon="6.94114">
        <ele>1422.89</ele>
        <time>2021-02-14T11:33:48Z</time>
      </trkpt>
      <trkpt lat="43.82711" lon="6.94112">
        <ele>1420.49</ele>
        <time>2021-02-14T11:33:51Z</time>
      </trkpt>
      <trkpt lat="43.82744" lon="6.94112">
        <ele>1417.6</ele>
        <time>2021-02-14T11:33:56Z</time>
      </trkpt>
      <trkpt lat="43.82801" lon="6.94117">
        <ele>1415.68</ele>
        <time>2021-02-14T11:34:05Z</time>
      </trkpt>
      <trkpt lat="43.82806" lon="6.94119">
        <ele>1415.68</ele>
        <time>2021-02-14T11:34:06Z</time>
      </trkpt>
      <trkpt lat="43.82811" lon="6.94121">
        <ele>1415.68</ele>
        <time>2021-02-14T11:34:07Z</time>
      </trkpt>
      <trkpt lat="43.82854" lon="6.94142">
        <ele>1411.83</ele>
        <time>2021-02-14T11:34:15Z</time>
      </trkpt>
      <trkpt lat="43.82907" lon="6.94169">
        <ele>1411.83</ele>
        <time>2021-02-14T11:34:28Z</time>
      </trkpt>
      <trkpt lat="43.82913" lon="6.94194">
        <ele>1413.28</ele>
        <time>2021-02-14T11:34:37Z</time>
      </trkpt>
      <trkpt lat="43.82914" lon="6.94199">
        <ele>1413.76</ele>
        <time>2021-02-14T11:34:39Z</time>
      </trkpt>
      <trkpt lat="43.82914" lon="6.94201">
        <ele>1413.76</ele>
        <time>2021-02-14T11:34:40Z</time>
      </trkpt>
      <trkpt lat="43.82914" lon="6.94204">
        <ele>1414.24</ele>
        <time>2021-02-14T11:34:41Z</time>
      </trkpt>
      <trkpt lat="43.82914" lon="6.94206">
        <ele>1414.72</ele>
        <time>2021-02-14T11:34:42Z</time>
      </trkpt>
      <trkpt lat="43.82913" lon="6.94208">
        <ele>1414.72</ele>
        <time>2021-02-14T11:34:43Z</time>
      </trkpt>
      <trkpt lat="43.82913" lon="6.9421">
        <ele>1414.72</ele>
        <time>2021-02-14T11:34:44Z</time>
      </trkpt>
      <trkpt lat="43.82913" lon="6.94212">
        <ele>1414.72</ele>
        <time>2021-02-14T11:34:45Z</time>
      </trkpt>
      <trkpt lat="43.82913" lon="6.94214">
        <ele>1415.2</ele>
        <time>2021-02-14T11:34:46Z</time>
      </trkpt>
      <trkpt lat="43.82913" lon="6.94216">
        <ele>1415.2</ele>
        <time>2021-02-14T11:34:47Z</time>
      </trkpt>
      <trkpt lat="43.82913" lon="6.94219">
        <ele>1415.68</ele>
        <time>2021-02-14T11:34:48Z</time>
      </trkpt>
      <trkpt lat="43.82913" lon="6.94221">
        <ele>1415.2</ele>
        <time>2021-02-14T11:34:49Z</time>
      </trkpt>
      <trkpt lat="43.82913" lon="6.94223">
        <ele>1416.16</ele>
        <time>2021-02-14T11:34:50Z</time>
      </trkpt>
      <trkpt lat="43.82912" lon="6.94226">
        <ele>1416.16</ele>
        <time>2021-02-14T11:34:51Z</time>
      </trkpt>
      <trkpt lat="43.82912" lon="6.94228">
        <ele>1416.16</ele>
        <time>2021-02-14T11:34:52Z</time>
      </trkpt>
      <trkpt lat="43.82912" lon="6.94231">
        <ele>1416.64</ele>
        <time>2021-02-14T11:34:53Z</time>
      </trkpt>
      <trkpt lat="43.82913" lon="6.94234">
        <ele>1416.64</ele>
        <time>2021-02-14T11:34:54Z</time>
      </trkpt>
      <trkpt lat="43.82912" lon="6.94237">
        <ele>1416.64</ele>
        <time>2021-02-14T11:34:55Z</time>
      </trkpt>
      <trkpt lat="43.82912" lon="6.94239">
        <ele>1416.64</ele>
        <time>2021-02-14T11:34:56Z</time>
      </trkpt>
      <trkpt lat="43.82912" lon="6.94242">
        <ele>1417.12</ele>
        <time>2021-02-14T11:34:57Z</time>
      </trkpt>
      <trkpt lat="43.82912" lon="6.94245">
        <ele>1417.12</ele>
        <time>2021-02-14T11:34:58Z</time>
      </trkpt>
      <trkpt lat="43.82912" lon="6.94248">
        <ele>1417.12</ele>
        <time>2021-02-14T11:34:59Z</time>
      </trkpt>
      <trkpt lat="43.82912" lon="6.94251">
        <ele>1417.12</ele>
        <time>2021-02-14T11:35:00Z</time>
      </trkpt>
      <trkpt lat="43.82912" lon="6.94253">
        <ele>1417.12</ele>
        <time>2021-02-14T11:35:01Z</time>
      </trkpt>
      <trkpt lat="43.82912" lon="6.94256">
        <ele>1417.6</ele>
        <time>2021-02-14T11:35:02Z</time>
      </trkpt>
      <trkpt lat="43.82912" lon="6.94258">
        <ele>1417.6</ele>
        <time>2021-02-14T11:35:03Z</time>
      </trkpt>
      <trkpt lat="43.82913" lon="6.94261">
        <ele>1417.6</ele>
        <time>2021-02-14T11:35:04Z</time>
      </trkpt>
      <trkpt lat="43.82913" lon="6.94263">
        <ele>1417.6</ele>
        <time>2021-02-14T11:35:05Z</time>
      </trkpt>
      <trkpt lat="43.82914" lon="6.94266">
        <ele>1417.6</ele>
        <time>2021-02-14T11:35:06Z</time>
      </trkpt>
      <trkpt lat="43.82915" lon="6.94268">
        <ele>1417.6</ele>
        <time>2021-02-14T11:35:07Z</time>
      </trkpt>
      <trkpt lat="43.82915" lon="6.9427">
        <ele>1417.6</ele>
        <time>2021-02-14T11:35:08Z</time>
      </trkpt>
      <trkpt lat="43.82916" lon="6.94272">
        <ele>1417.6</ele>
        <time>2021-02-14T11:35:09Z</time>
      </trkpt>
      <trkpt lat="43.82917" lon="6.94275">
        <ele>1418.08</ele>
        <time>2021-02-14T11:35:10Z</time>
      </trkpt>
      <trkpt lat="43.82917" lon="6.94277">
        <ele>1418.56</ele>
        <time>2021-02-14T11:35:11Z</time>
      </trkpt>
      <trkpt lat="43.82918" lon="6.94279">
        <ele>1418.56</ele>
        <time>2021-02-14T11:35:12Z</time>
      </trkpt>
      <trkpt lat="43.82919" lon="6.94281">
        <ele>1418.56</ele>
        <time>2021-02-14T11:35:13Z</time>
      </trkpt>
      <trkpt lat="43.8292" lon="6.94283">
        <ele>1418.56</ele>
        <time>2021-02-14T11:35:14Z</time>
      </trkpt>
      <trkpt lat="43.82921" lon="6.94286">
        <ele>1418.56</ele>
        <time>2021-02-14T11:35:15Z</time>
      </trkpt>
      <trkpt lat="43.82922" lon="6.94288">
        <ele>1418.56</ele>
        <time>2021-02-14T11:35:16Z</time>
      </trkpt>
      <trkpt lat="43.82922" lon="6.94291">
        <ele>1419.04</ele>
        <time>2021-02-14T11:35:17Z</time>
      </trkpt>
      <trkpt lat="43.82923" lon="6.94294">
        <ele>1419.04</ele>
        <time>2021-02-14T11:35:18Z</time>
      </trkpt>
      <trkpt lat="43.82924" lon="6.94296">
        <ele>1419.04</ele>
        <time>2021-02-14T11:35:19Z</time>
      </trkpt>
      <trkpt lat="43.82925" lon="6.943">
        <ele>1419.04</ele>
        <time>2021-02-14T11:35:20Z</time>
      </trkpt>
      <trkpt lat="43.82925" lon="6.94303">
        <ele>1419.04</ele>
        <time>2021-02-14T11:35:21Z</time>
      </trkpt>
      <trkpt lat="43.82926" lon="6.94306">
        <ele>1419.52</ele>
        <time>2021-02-14T11:35:22Z</time>
      </trkpt>
      <trkpt lat="43.82926" lon="6.94309">
        <ele>1419.52</ele>
        <time>2021-02-14T11:35:23Z</time>
      </trkpt>
      <trkpt lat="43.82926" lon="6.94311">
        <ele>1419.52</ele>
        <time>2021-02-14T11:35:24Z</time>
      </trkpt>
      <trkpt lat="43.82925" lon="6.94314">
        <ele>1419.52</ele>
        <time>2021-02-14T11:35:25Z</time>
      </trkpt>
      <trkpt lat="43.82925" lon="6.94316">
        <ele>1419.52</ele>
        <time>2021-02-14T11:35:26Z</time>
      </trkpt>
      <trkpt lat="43.82925" lon="6.94318">
        <ele>1420.49</ele>
        <time>2021-02-14T11:35:27Z</time>
      </trkpt>
      <trkpt lat="43.82924" lon="6.94319">
        <ele>1420.49</ele>
        <time>2021-02-14T11:35:28Z</time>
      </trkpt>
      <trkpt lat="43.82923" lon="6.94321">
        <ele>1420.49</ele>
        <time>2021-02-14T11:35:29Z</time>
      </trkpt>
      <trkpt lat="43.82922" lon="6.94323">
        <ele>1420.49</ele>
        <time>2021-02-14T11:35:30Z</time>
      </trkpt>
      <trkpt lat="43.82921" lon="6.94325">
        <ele>1420.49</ele>
        <time>2021-02-14T11:35:31Z</time>
      </trkpt>
      <trkpt lat="43.8292" lon="6.94326">
        <ele>1420.49</ele>
        <time>2021-02-14T11:35:32Z</time>
      </trkpt>
      <trkpt lat="43.82919" lon="6.94328">
        <ele>1421.45</ele>
        <time>2021-02-14T11:35:33Z</time>
      </trkpt>
      <trkpt lat="43.82918" lon="6.94329">
        <ele>1421.45</ele>
        <time>2021-02-14T11:35:34Z</time>
      </trkpt>
      <trkpt lat="43.82917" lon="6.9433">
        <ele>1421.45</ele>
        <time>2021-02-14T11:35:35Z</time>
      </trkpt>
      <trkpt lat="43.82915" lon="6.94334">
        <ele>1421.93</ele>
        <time>2021-02-14T11:35:38Z</time>
      </trkpt>
      <trkpt lat="43.82905" lon="6.9434">
        <ele>1423.37</ele>
        <time>2021-02-14T11:35:48Z</time>
      </trkpt>
      <trkpt lat="43.82904" lon="6.9434">
        <ele>1423.37</ele>
        <time>2021-02-14T11:35:49Z</time>
      </trkpt>
      <trkpt lat="43.82903" lon="6.94341">
        <ele>1424.33</ele>
        <time>2021-02-14T11:35:50Z</time>
      </trkpt>
      <trkpt lat="43.829" lon="6.94342">
        <ele>1424.33</ele>
        <time>2021-02-14T11:35:52Z</time>
      </trkpt>
      <trkpt lat="43.82899" lon="6.94342">
        <ele>1424.33</ele>
        <time>2021-02-14T11:35:53Z</time>
      </trkpt>
      <trkpt lat="43.82898" lon="6.94342">
        <ele>1424.81</ele>
        <time>2021-02-14T11:35:54Z</time>
      </trkpt>
      <trkpt lat="43.82896" lon="6.94343">
        <ele>1424.81</ele>
        <time>2021-02-14T11:35:55Z</time>
      </trkpt>
      <trkpt lat="43.82895" lon="6.94344">
        <ele>1424.81</ele>
        <time>2021-02-14T11:35:56Z</time>
      </trkpt>
      <trkpt lat="43.82894" lon="6.94344">
        <ele>1425.29</ele>
        <time>2021-02-14T11:35:57Z</time>
      </trkpt>
      <trkpt lat="43.82893" lon="6.94345">
        <ele>1425.29</ele>
        <time>2021-02-14T11:35:58Z</time>
      </trkpt>
      <trkpt lat="43.82891" lon="6.94346">
        <ele>1425.29</ele>
        <time>2021-02-14T11:35:59Z</time>
      </trkpt>
      <trkpt lat="43.8289" lon="6.94346">
        <ele>1425.29</ele>
        <time>2021-02-14T11:36:00Z</time>
      </trkpt>
      <trkpt lat="43.82889" lon="6.94347">
        <ele>1426.25</ele>
        <time>2021-02-14T11:36:01Z</time>
      </trkpt>
      <trkpt lat="43.82887" lon="6.94348">
        <ele>1426.25</ele>
        <time>2021-02-14T11:36:02Z</time>
      </trkpt>
      <trkpt lat="43.82886" lon="6.94348">
        <ele>1426.25</ele>
        <time>2021-02-14T11:36:03Z</time>
      </trkpt>
      <trkpt lat="43.82884" lon="6.94348">
        <ele>1426.73</ele>
        <time>2021-02-14T11:36:04Z</time>
      </trkpt>
      <trkpt lat="43.82883" lon="6.94349">
        <ele>1426.73</ele>
        <time>2021-02-14T11:36:05Z</time>
      </trkpt>
      <trkpt lat="43.82882" lon="6.94349">
        <ele>1426.73</ele>
        <time>2021-02-14T11:36:06Z</time>
      </trkpt>
      <trkpt lat="43.8288" lon="6.94349">
        <ele>1426.73</ele>
        <time>2021-02-14T11:36:07Z</time>
      </trkpt>
      <trkpt lat="43.82879" lon="6.9435">
        <ele>1427.7</ele>
        <time>2021-02-14T11:36:08Z</time>
      </trkpt>
      <trkpt lat="43.82878" lon="6.94351">
        <ele>1427.7</ele>
        <time>2021-02-14T11:36:09Z</time>
      </trkpt>
      <trkpt lat="43.82877" lon="6.94351">
        <ele>1427.7</ele>
        <time>2021-02-14T11:36:10Z</time>
      </trkpt>
      <trkpt lat="43.82874" lon="6.94353">
        <ele>1428.18</ele>
        <time>2021-02-14T11:36:13Z</time>
      </trkpt>
      <trkpt lat="43.82873" lon="6.94354">
        <ele>1428.66</ele>
        <time>2021-02-14T11:36:14Z</time>
      </trkpt>
      <trkpt lat="43.82871" lon="6.94355">
        <ele>1428.66</ele>
        <time>2021-02-14T11:36:15Z</time>
      </trkpt>
      <trkpt lat="43.8287" lon="6.94356">
        <ele>1429.14</ele>
        <time>2021-02-14T11:36:16Z</time>
      </trkpt>
      <trkpt lat="43.82866" lon="6.94361">
        <ele>1430.58</ele>
        <time>2021-02-14T11:36:22Z</time>
      </trkpt>
      <trkpt lat="43.82865" lon="6.94362">
        <ele>1430.58</ele>
        <time>2021-02-14T11:36:23Z</time>
      </trkpt>
      <trkpt lat="43.8286" lon="6.94367">
        <ele>1431.54</ele>
        <time>2021-02-14T11:36:29Z</time>
      </trkpt>
      <trkpt lat="43.82859" lon="6.94368">
        <ele>1432.02</ele>
        <time>2021-02-14T11:36:30Z</time>
      </trkpt>
      <trkpt lat="43.82858" lon="6.94369">
        <ele>1432.02</ele>
        <time>2021-02-14T11:36:31Z</time>
      </trkpt>
      <trkpt lat="43.82857" lon="6.94371">
        <ele>1432.02</ele>
        <time>2021-02-14T11:36:32Z</time>
      </trkpt>
      <trkpt lat="43.82854" lon="6.94375">
        <ele>1432.98</ele>
        <time>2021-02-14T11:36:35Z</time>
      </trkpt>
      <trkpt lat="43.82853" lon="6.94377">
        <ele>1432.98</ele>
        <time>2021-02-14T11:36:36Z</time>
      </trkpt>
      <trkpt lat="43.82852" lon="6.94379">
        <ele>1433.46</ele>
        <time>2021-02-14T11:36:37Z</time>
      </trkpt>
      <trkpt lat="43.8285" lon="6.94381">
        <ele>1433.46</ele>
        <time>2021-02-14T11:36:38Z</time>
      </trkpt>
      <trkpt lat="43.82849" lon="6.94383">
        <ele>1433.46</ele>
        <time>2021-02-14T11:36:39Z</time>
      </trkpt>
      <trkpt lat="43.82848" lon="6.94385">
        <ele>1433.46</ele>
        <time>2021-02-14T11:36:40Z</time>
      </trkpt>
      <trkpt lat="43.82846" lon="6.94423">
        <ele>1433.46</ele>
        <time>2021-02-14T11:36:54Z</time>
      </trkpt>
      <trkpt lat="43.82849" lon="6.9443">
        <ele>1433.46</ele>
        <time>2021-02-14T11:36:57Z</time>
      </trkpt>
      <trkpt lat="43.8285" lon="6.94432">
        <ele>1433.46</ele>
        <time>2021-02-14T11:36:58Z</time>
      </trkpt>
      <trkpt lat="43.82856" lon="6.94447">
        <ele>1433.94</ele>
        <time>2021-02-14T11:37:05Z</time>
      </trkpt>
      <trkpt lat="43.82857" lon="6.9445">
        <ele>1434.42</ele>
        <time>2021-02-14T11:37:06Z</time>
      </trkpt>
      <trkpt lat="43.82858" lon="6.94452">
        <ele>1434.42</ele>
        <time>2021-02-14T11:37:07Z</time>
      </trkpt>
      <trkpt lat="43.82858" lon="6.94454">
        <ele>1434.42</ele>
        <time>2021-02-14T11:37:08Z</time>
      </trkpt>
      <trkpt lat="43.82858" lon="6.94457">
        <ele>1434.91</ele>
        <time>2021-02-14T11:37:09Z</time>
      </trkpt>
      <trkpt lat="43.82859" lon="6.94459">
        <ele>1434.91</ele>
        <time>2021-02-14T11:37:10Z</time>
      </trkpt>
      <trkpt lat="43.82859" lon="6.94462">
        <ele>1435.39</ele>
        <time>2021-02-14T11:37:11Z</time>
      </trkpt>
      <trkpt lat="43.82859" lon="6.94465">
        <ele>1435.39</ele>
        <time>2021-02-14T11:37:12Z</time>
      </trkpt>
      <trkpt lat="43.82852" lon="6.94494">
        <ele>1433.46</ele>
        <time>2021-02-14T11:37:19Z</time>
      </trkpt>
      <trkpt lat="43.82851" lon="6.94536">
        <ele>1433.46</ele>
        <time>2021-02-14T11:37:28Z</time>
      </trkpt>
      <trkpt lat="43.82855" lon="6.94562">
        <ele>1434.91</ele>
        <time>2021-02-14T11:37:37Z</time>
      </trkpt>
      <trkpt lat="43.82856" lon="6.94571">
        <ele>1434.91</ele>
        <time>2021-02-14T11:37:40Z</time>
      </trkpt>
      <trkpt lat="43.82856" lon="6.94575">
        <ele>1434.91</ele>
        <time>2021-02-14T11:37:41Z</time>
      </trkpt>
      <trkpt lat="43.82856" lon="6.94578">
        <ele>1434.91</ele>
        <time>2021-02-14T11:37:42Z</time>
      </trkpt>
      <trkpt lat="43.82855" lon="6.94582">
        <ele>1434.91</ele>
        <time>2021-02-14T11:37:43Z</time>
      </trkpt>
      <trkpt lat="43.82855" lon="6.94585">
        <ele>1434.91</ele>
        <time>2021-02-14T11:37:44Z</time>
      </trkpt>
      <trkpt lat="43.82854" lon="6.94589">
        <ele>1434.91</ele>
        <time>2021-02-14T11:37:45Z</time>
      </trkpt>
      <trkpt lat="43.82853" lon="6.94592">
        <ele>1434.91</ele>
        <time>2021-02-14T11:37:46Z</time>
      </trkpt>
      <trkpt lat="43.82845" lon="6.94613">
        <ele>1433.94</ele>
        <time>2021-02-14T11:37:51Z</time>
      </trkpt>
      <trkpt lat="43.82821" lon="6.94652">
        <ele>1433.94</ele>
        <time>2021-02-14T11:38:03Z</time>
      </trkpt>
      <trkpt lat="43.82795" lon="6.94686">
        <ele>1432.5</ele>
        <time>2021-02-14T11:38:15Z</time>
      </trkpt>
      <trkpt lat="43.82765" lon="6.94714">
        <ele>1432.02</ele>
        <time>2021-02-14T11:38:26Z</time>
      </trkpt>
      <trkpt lat="43.82742" lon="6.9473">
        <ele>1433.46</ele>
        <time>2021-02-14T11:38:36Z</time>
      </trkpt>
      <trkpt lat="43.82727" lon="6.94737">
        <ele>1434.42</ele>
        <time>2021-02-14T11:38:43Z</time>
      </trkpt>
      <trkpt lat="43.82725" lon="6.94737">
        <ele>1434.42</ele>
        <time>2021-02-14T11:38:44Z</time>
      </trkpt>
      <trkpt lat="43.82723" lon="6.94738">
        <ele>1434.42</ele>
        <time>2021-02-14T11:38:45Z</time>
      </trkpt>
      <trkpt lat="43.82721" lon="6.94738">
        <ele>1434.91</ele>
        <time>2021-02-14T11:38:46Z</time>
      </trkpt>
      <trkpt lat="43.82719" lon="6.94739">
        <ele>1434.91</ele>
        <time>2021-02-14T11:38:47Z</time>
      </trkpt>
      <trkpt lat="43.82718" lon="6.94739">
        <ele>1434.91</ele>
        <time>2021-02-14T11:38:48Z</time>
      </trkpt>
      <trkpt lat="43.82716" lon="6.9474">
        <ele>1435.39</ele>
        <time>2021-02-14T11:38:49Z</time>
      </trkpt>
      <trkpt lat="43.82715" lon="6.9474">
        <ele>1435.39</ele>
        <time>2021-02-14T11:38:50Z</time>
      </trkpt>
      <trkpt lat="43.82713" lon="6.94741">
        <ele>1435.39</ele>
        <time>2021-02-14T11:38:51Z</time>
      </trkpt>
      <trkpt lat="43.82711" lon="6.94742">
        <ele>1435.39</ele>
        <time>2021-02-14T11:38:52Z</time>
      </trkpt>
      <trkpt lat="43.82709" lon="6.94743">
        <ele>1435.39</ele>
        <time>2021-02-14T11:38:53Z</time>
      </trkpt>
      <trkpt lat="43.82707" lon="6.94744">
        <ele>1435.87</ele>
        <time>2021-02-14T11:38:54Z</time>
      </trkpt>
      <trkpt lat="43.82706" lon="6.94746">
        <ele>1435.87</ele>
        <time>2021-02-14T11:38:55Z</time>
      </trkpt>
      <trkpt lat="43.82704" lon="6.94746">
        <ele>1436.35</ele>
        <time>2021-02-14T11:38:56Z</time>
      </trkpt>
      <trkpt lat="43.82702" lon="6.94747">
        <ele>1436.35</ele>
        <time>2021-02-14T11:38:57Z</time>
      </trkpt>
      <trkpt lat="43.827" lon="6.94747">
        <ele>1436.83</ele>
        <time>2021-02-14T11:38:58Z</time>
      </trkpt>
      <trkpt lat="43.82698" lon="6.94748">
        <ele>1436.83</ele>
        <time>2021-02-14T11:38:59Z</time>
      </trkpt>
      <trkpt lat="43.82696" lon="6.94749">
        <ele>1436.83</ele>
        <time>2021-02-14T11:39:00Z</time>
      </trkpt>
      <trkpt lat="43.82694" lon="6.9475">
        <ele>1436.83</ele>
        <time>2021-02-14T11:39:01Z</time>
      </trkpt>
      <trkpt lat="43.82692" lon="6.94751">
        <ele>1436.83</ele>
        <time>2021-02-14T11:39:02Z</time>
      </trkpt>
      <trkpt lat="43.8269" lon="6.94752">
        <ele>1436.83</ele>
        <time>2021-02-14T11:39:03Z</time>
      </trkpt>
      <trkpt lat="43.82688" lon="6.94753">
        <ele>1437.31</ele>
        <time>2021-02-14T11:39:04Z</time>
      </trkpt>
      <trkpt lat="43.82687" lon="6.94755">
        <ele>1437.31</ele>
        <time>2021-02-14T11:39:05Z</time>
      </trkpt>
      <trkpt lat="43.82685" lon="6.94756">
        <ele>1437.31</ele>
        <time>2021-02-14T11:39:06Z</time>
      </trkpt>
      <trkpt lat="43.82683" lon="6.94758">
        <ele>1437.31</ele>
        <time>2021-02-14T11:39:07Z</time>
      </trkpt>
      <trkpt lat="43.82681" lon="6.94759">
        <ele>1437.79</ele>
        <time>2021-02-14T11:39:08Z</time>
      </trkpt>
      <trkpt lat="43.82679" lon="6.9476">
        <ele>1437.79</ele>
        <time>2021-02-14T11:39:09Z</time>
      </trkpt>
      <trkpt lat="43.82677" lon="6.94761">
        <ele>1437.79</ele>
        <time>2021-02-14T11:39:10Z</time>
      </trkpt>
      <trkpt lat="43.82675" lon="6.94762">
        <ele>1437.79</ele>
        <time>2021-02-14T11:39:11Z</time>
      </trkpt>
      <trkpt lat="43.82644" lon="6.94785">
        <ele>1437.79</ele>
        <time>2021-02-14T11:39:25Z</time>
      </trkpt>
      <trkpt lat="43.82611" lon="6.94798">
        <ele>1436.35</ele>
        <time>2021-02-14T11:39:37Z</time>
      </trkpt>
      <trkpt lat="43.82605" lon="6.948">
        <ele>1437.79</ele>
        <time>2021-02-14T11:39:40Z</time>
      </trkpt>
      <trkpt lat="43.82603" lon="6.94801">
        <ele>1437.79</ele>
        <time>2021-02-14T11:39:41Z</time>
      </trkpt>
      <trkpt lat="43.82601" lon="6.94802">
        <ele>1437.79</ele>
        <time>2021-02-14T11:39:42Z</time>
      </trkpt>
      <trkpt lat="43.82599" lon="6.94803">
        <ele>1437.79</ele>
        <time>2021-02-14T11:39:43Z</time>
      </trkpt>
      <trkpt lat="43.82597" lon="6.94804">
        <ele>1438.27</ele>
        <time>2021-02-14T11:39:44Z</time>
      </trkpt>
      <trkpt lat="43.82593" lon="6.94805">
        <ele>1438.75</ele>
        <time>2021-02-14T11:39:46Z</time>
      </trkpt>
      <trkpt lat="43.82591" lon="6.94806">
        <ele>1438.75</ele>
        <time>2021-02-14T11:39:47Z</time>
      </trkpt>
      <trkpt lat="43.82589" lon="6.94807">
        <ele>1438.75</ele>
        <time>2021-02-14T11:39:48Z</time>
      </trkpt>
      <trkpt lat="43.82588" lon="6.94808">
        <ele>1438.75</ele>
        <time>2021-02-14T11:39:49Z</time>
      </trkpt>
      <trkpt lat="43.82585" lon="6.94809">
        <ele>1439.23</ele>
        <time>2021-02-14T11:39:50Z</time>
      </trkpt>
      <trkpt lat="43.82583" lon="6.94809">
        <ele>1439.23</ele>
        <time>2021-02-14T11:39:51Z</time>
      </trkpt>
      <trkpt lat="43.82582" lon="6.9481">
        <ele>1439.23</ele>
        <time>2021-02-14T11:39:52Z</time>
      </trkpt>
      <trkpt lat="43.8258" lon="6.9481">
        <ele>1440.19</ele>
        <time>2021-02-14T11:39:53Z</time>
      </trkpt>
      <trkpt lat="43.82578" lon="6.94811">
        <ele>1440.19</ele>
        <time>2021-02-14T11:39:54Z</time>
      </trkpt>
      <trkpt lat="43.82576" lon="6.94811">
        <ele>1440.19</ele>
        <time>2021-02-14T11:39:55Z</time>
      </trkpt>
      <trkpt lat="43.82573" lon="6.94812">
        <ele>1440.67</ele>
        <time>2021-02-14T11:39:56Z</time>
      </trkpt>
      <trkpt lat="43.82572" lon="6.94813">
        <ele>1440.67</ele>
        <time>2021-02-14T11:39:57Z</time>
      </trkpt>
      <trkpt lat="43.8257" lon="6.94814">
        <ele>1441.15</ele>
        <time>2021-02-14T11:39:58Z</time>
      </trkpt>
      <trkpt lat="43.82566" lon="6.94816">
        <ele>1441.15</ele>
        <time>2021-02-14T11:40:00Z</time>
      </trkpt>
      <trkpt lat="43.82564" lon="6.94817">
        <ele>1441.63</ele>
        <time>2021-02-14T11:40:01Z</time>
      </trkpt>
      <trkpt lat="43.82558" lon="6.94821">
        <ele>1442.11</ele>
        <time>2021-02-14T11:40:04Z</time>
      </trkpt>
      <trkpt lat="43.82556" lon="6.94822">
        <ele>1442.11</ele>
        <time>2021-02-14T11:40:05Z</time>
      </trkpt>
      <trkpt lat="43.82554" lon="6.94823">
        <ele>1442.11</ele>
        <time>2021-02-14T11:40:06Z</time>
      </trkpt>
      <trkpt lat="43.82551" lon="6.94825">
        <ele>1442.11</ele>
        <time>2021-02-14T11:40:07Z</time>
      </trkpt>
      <trkpt lat="43.82549" lon="6.94826">
        <ele>1442.11</ele>
        <time>2021-02-14T11:40:08Z</time>
      </trkpt>
      <trkpt lat="43.82547" lon="6.94828">
        <ele>1442.6</ele>
        <time>2021-02-14T11:40:09Z</time>
      </trkpt>
      <trkpt lat="43.82545" lon="6.94829">
        <ele>1442.6</ele>
        <time>2021-02-14T11:40:10Z</time>
      </trkpt>
      <trkpt lat="43.82543" lon="6.9483">
        <ele>1442.6</ele>
        <time>2021-02-14T11:40:11Z</time>
      </trkpt>
      <trkpt lat="43.82534" lon="6.94838">
        <ele>1443.08</ele>
        <time>2021-02-14T11:40:15Z</time>
      </trkpt>
      <trkpt lat="43.82532" lon="6.94839">
        <ele>1443.08</ele>
        <time>2021-02-14T11:40:16Z</time>
      </trkpt>
      <trkpt lat="43.82529" lon="6.94839">
        <ele>1443.08</ele>
        <time>2021-02-14T11:40:17Z</time>
      </trkpt>
      <trkpt lat="43.82527" lon="6.9484">
        <ele>1443.56</ele>
        <time>2021-02-14T11:40:18Z</time>
      </trkpt>
      <trkpt lat="43.82524" lon="6.94842">
        <ele>1443.56</ele>
        <time>2021-02-14T11:40:19Z</time>
      </trkpt>
      <trkpt lat="43.82522" lon="6.94844">
        <ele>1443.56</ele>
        <time>2021-02-14T11:40:20Z</time>
      </trkpt>
      <trkpt lat="43.82519" lon="6.94847">
        <ele>1443.56</ele>
        <time>2021-02-14T11:40:21Z</time>
      </trkpt>
      <trkpt lat="43.82517" lon="6.94849">
        <ele>1443.56</ele>
        <time>2021-02-14T11:40:22Z</time>
      </trkpt>
      <trkpt lat="43.82514" lon="6.9485">
        <ele>1443.56</ele>
        <time>2021-02-14T11:40:23Z</time>
      </trkpt>
      <trkpt lat="43.82512" lon="6.94852">
        <ele>1444.04</ele>
        <time>2021-02-14T11:40:24Z</time>
      </trkpt>
      <trkpt lat="43.82509" lon="6.94854">
        <ele>1444.04</ele>
        <time>2021-02-14T11:40:25Z</time>
      </trkpt>
      <trkpt lat="43.82506" lon="6.94856">
        <ele>1444.04</ele>
        <time>2021-02-14T11:40:26Z</time>
      </trkpt>
      <trkpt lat="43.82503" lon="6.94857">
        <ele>1444.04</ele>
        <time>2021-02-14T11:40:27Z</time>
      </trkpt>
      <trkpt lat="43.825" lon="6.94859">
        <ele>1444.04</ele>
        <time>2021-02-14T11:40:28Z</time>
      </trkpt>
      <trkpt lat="43.82477" lon="6.94891">
        <ele>1442.6</ele>
        <time>2021-02-14T11:40:39Z</time>
      </trkpt>
      <trkpt lat="43.82471" lon="6.94911">
        <ele>1441.15</ele>
        <time>2021-02-14T11:40:43Z</time>
      </trkpt>
      <trkpt lat="43.8247" lon="6.94917">
        <ele>1441.15</ele>
        <time>2021-02-14T11:40:44Z</time>
      </trkpt>
      <trkpt lat="43.82469" lon="6.94938">
        <ele>1439.71</ele>
        <time>2021-02-14T11:40:47Z</time>
      </trkpt>
      <trkpt lat="43.8247" lon="6.94945">
        <ele>1439.71</ele>
        <time>2021-02-14T11:40:48Z</time>
      </trkpt>
      <trkpt lat="43.82471" lon="6.94951">
        <ele>1439.23</ele>
        <time>2021-02-14T11:40:49Z</time>
      </trkpt>
      <trkpt lat="43.82473" lon="6.94958">
        <ele>1438.75</ele>
        <time>2021-02-14T11:40:50Z</time>
      </trkpt>
      <trkpt lat="43.82475" lon="6.94964">
        <ele>1438.75</ele>
        <time>2021-02-14T11:40:51Z</time>
      </trkpt>
      <trkpt lat="43.825" lon="6.95003">
        <ele>1437.79</ele>
        <time>2021-02-14T11:41:00Z</time>
      </trkpt>
      <trkpt lat="43.82505" lon="6.95005">
        <ele>1436.83</ele>
        <time>2021-02-14T11:41:01Z</time>
      </trkpt>
      <trkpt lat="43.8251" lon="6.95005">
        <ele>1436.35</ele>
        <time>2021-02-14T11:41:02Z</time>
      </trkpt>
      <trkpt lat="43.8253" lon="6.95003">
        <ele>1432.98</ele>
        <time>2021-02-14T11:41:05Z</time>
      </trkpt>
      <trkpt lat="43.82555" lon="6.95002">
        <ele>1429.62</ele>
        <time>2021-02-14T11:41:08Z</time>
      </trkpt>
      <trkpt lat="43.82581" lon="6.95001">
        <ele>1427.7</ele>
        <time>2021-02-14T11:41:11Z</time>
      </trkpt>
      <trkpt lat="43.82644" lon="6.95001">
        <ele>1423.85</ele>
        <time>2021-02-14T11:41:18Z</time>
      </trkpt>
      <trkpt lat="43.82663" lon="6.95002">
        <ele>1423.37</ele>
        <time>2021-02-14T11:41:20Z</time>
      </trkpt>
      <trkpt lat="43.82717" lon="6.95006">
        <ele>1419.52</ele>
        <time>2021-02-14T11:41:26Z</time>
      </trkpt>
      <trkpt lat="43.82725" lon="6.95007">
        <ele>1419.52</ele>
        <time>2021-02-14T11:41:27Z</time>
      </trkpt>
      <trkpt lat="43.82751" lon="6.95009">
        <ele>1417.6</ele>
        <time>2021-02-14T11:41:30Z</time>
      </trkpt>
      <trkpt lat="43.82841" lon="6.95019">
        <ele>1414.24</ele>
        <time>2021-02-14T11:41:42Z</time>
      </trkpt>
      <trkpt lat="43.82856" lon="6.9502">
        <ele>1413.28</ele>
        <time>2021-02-14T11:41:44Z</time>
      </trkpt>
      <trkpt lat="43.82929" lon="6.95053">
        <ele>1410.39</ele>
        <time>2021-02-14T11:41:55Z</time>
      </trkpt>
      <trkpt lat="43.82972" lon="6.95078">
        <ele>1407.03</ele>
        <time>2021-02-14T11:42:01Z</time>
      </trkpt>
      <trkpt lat="43.83017" lon="6.95101">
        <ele>1406.07</ele>
        <time>2021-02-14T11:42:09Z</time>
      </trkpt>
      <trkpt lat="43.83059" lon="6.95109">
        <ele>1407.99</ele>
        <time>2021-02-14T11:42:20Z</time>
      </trkpt>
      <trkpt lat="43.83063" lon="6.9511">
        <ele>1407.99</ele>
        <time>2021-02-14T11:42:21Z</time>
      </trkpt>
      <trkpt lat="43.83067" lon="6.9511">
        <ele>1407.99</ele>
        <time>2021-02-14T11:42:22Z</time>
      </trkpt>
      <trkpt lat="43.83071" lon="6.9511">
        <ele>1407.99</ele>
        <time>2021-02-14T11:42:23Z</time>
      </trkpt>
      <trkpt lat="43.83075" lon="6.9511">
        <ele>1407.99</ele>
        <time>2021-02-14T11:42:24Z</time>
      </trkpt>
      <trkpt lat="43.83079" lon="6.9511">
        <ele>1407.99</ele>
        <time>2021-02-14T11:42:25Z</time>
      </trkpt>
      <trkpt lat="43.83083" lon="6.9511">
        <ele>1407.99</ele>
        <time>2021-02-14T11:42:26Z</time>
      </trkpt>
      <trkpt lat="43.83087" lon="6.9511">
        <ele>1407.99</ele>
        <time>2021-02-14T11:42:27Z</time>
      </trkpt>
      <trkpt lat="43.83091" lon="6.9511">
        <ele>1407.99</ele>
        <time>2021-02-14T11:42:28Z</time>
      </trkpt>
      <trkpt lat="43.83108" lon="6.95111">
        <ele>1407.99</ele>
        <time>2021-02-14T11:42:32Z</time>
      </trkpt>
      <trkpt lat="43.83117" lon="6.95114">
        <ele>1407.99</ele>
        <time>2021-02-14T11:42:34Z</time>
      </trkpt>
      <trkpt lat="43.83121" lon="6.95116">
        <ele>1407.99</ele>
        <time>2021-02-14T11:42:35Z</time>
      </trkpt>
      <trkpt lat="43.83124" lon="6.95119">
        <ele>1407.99</ele>
        <time>2021-02-14T11:42:36Z</time>
      </trkpt>
      <trkpt lat="43.83133" lon="6.95126">
        <ele>1407.99</ele>
        <time>2021-02-14T11:42:39Z</time>
      </trkpt>
      <trkpt lat="43.83135" lon="6.95129">
        <ele>1407.99</ele>
        <time>2021-02-14T11:42:40Z</time>
      </trkpt>
      <trkpt lat="43.83136" lon="6.95133">
        <ele>1407.99</ele>
        <time>2021-02-14T11:42:41Z</time>
      </trkpt>
      <trkpt lat="43.83136" lon="6.95136">
        <ele>1407.99</ele>
        <time>2021-02-14T11:42:42Z</time>
      </trkpt>
      <trkpt lat="43.83137" lon="6.95139">
        <ele>1407.99</ele>
        <time>2021-02-14T11:42:43Z</time>
      </trkpt>
    </trkseg>
  </trk>
</gpx>